<?xml version='1.0' encoding='UTF-8'?><gpx version="1.1" creator="JPX - https://github.com/jenetics/jpx" xmlns="http://www.topografix.com/GPX/1/1"><trk><trkseg><trkpt lat="45.9267151" lon="9.0999039"><ele>583.5</ele><time>2026-03-28T09:38:38.038Z</time></trkpt><trkpt lat="45.9267721" lon="9.0995414"><ele>576.0</ele><time>2026-03-28T09:38:41.009Z</time></trkpt><trkpt lat="45.9267776" lon="9.0992501"><ele>576.6666666666666</ele><time>2026-03-28T09:38:42.009Z</time></trkpt><trkpt lat="45.9267955" lon="9.0990811"><ele>577.3333333333334</ele><time>2026-03-28T09:38:43.024Z</time></trkpt><trkpt lat="45.9268179" lon="9.0989597"><ele>578.0</ele><time>2026-03-28T09:38:44.012Z</time></trkpt><trkpt lat="45.9268407" lon="9.0988528"><ele>578.6666666666667</ele><time>2026-03-28T09:38:45.014Z</time></trkpt><trkpt lat="45.9268653" lon="9.0987554"><ele>579.3333333333334</ele><time>2026-03-28T09:38:46.021Z</time></trkpt><trkpt lat="45.9268923" lon="9.0986674"><ele>580.0</ele><time>2026-03-28T09:38:47.01Z</time></trkpt><trkpt lat="45.9269175" lon="9.0985834"><ele>580.0</ele><time>2026-03-28T09:38:48.033Z</time></trkpt><trkpt lat="45.9268977" lon="9.0983988"><ele>580.0</ele><time>2026-03-28T09:38:50.02Z</time></trkpt><trkpt lat="45.9268731" lon="9.0983063"><ele>580.0</ele><time>2026-03-28T09:38:51.037Z</time></trkpt><trkpt lat="45.9268337" lon="9.0982161"><ele>580.0</ele><time>2026-03-28T09:38:52.037Z</time></trkpt><trkpt lat="45.926809" lon="9.0981039"><ele>580.0</ele><time>2026-03-28T09:38:53.031Z</time></trkpt><trkpt lat="45.926814" lon="9.0979992"><ele>580.0</ele><time>2026-03-28T09:38:54.042Z</time></trkpt><trkpt lat="45.9268203" lon="9.0978959"><ele>581.6</ele><time>2026-03-28T09:38:55.029Z</time></trkpt><trkpt lat="45.9268427" lon="9.0977455"><ele>583.2</ele><time>2026-03-28T09:38:57.023Z</time></trkpt><trkpt lat="45.9268817" lon="9.0975892"><ele>584.8</ele><time>2026-03-28T09:38:59.039Z</time></trkpt><trkpt lat="45.9269129" lon="9.097509"><ele>586.4</ele><time>2026-03-28T09:39:00.017Z</time></trkpt><trkpt lat="45.9269884" lon="9.0974738"><ele>588.0</ele><time>2026-03-28T09:39:01.019Z</time></trkpt><trkpt lat="45.927073" lon="9.0974887"><ele>588.0</ele><time>2026-03-28T09:39:02.022Z</time></trkpt><trkpt lat="45.9271537" lon="9.0975154"><ele>588.0</ele><time>2026-03-28T09:39:03.028Z</time></trkpt><trkpt lat="45.9272303" lon="9.097539"><ele>588.0</ele><time>2026-03-28T09:39:04.021Z</time></trkpt><trkpt lat="45.9273003" lon="9.097549"><ele>588.0</ele><time>2026-03-28T09:39:05.041Z</time></trkpt><trkpt lat="45.9273661" lon="9.0975635"><ele>588.0</ele><time>2026-03-28T09:39:06.033Z</time></trkpt><trkpt lat="45.9274384" lon="9.0975496"><ele>588.0</ele><time>2026-03-28T09:39:07.024Z</time></trkpt><trkpt lat="45.9275408" lon="9.0975531"><ele>588.5</ele><time>2026-03-28T09:39:08.014Z</time></trkpt><trkpt lat="45.9276076" lon="9.0974901"><ele>589.0</ele><time>2026-03-28T09:39:09.018Z</time></trkpt><trkpt lat="45.9276605" lon="9.0974265"><ele>589.5</ele><time>2026-03-28T09:39:10.028Z</time></trkpt><trkpt lat="45.9276504" lon="9.0973145"><ele>590.0</ele><time>2026-03-28T09:39:11.026Z</time></trkpt><trkpt lat="45.927614" lon="9.0971983"><ele>590.5</ele><time>2026-03-28T09:39:12.041Z</time></trkpt><trkpt lat="45.9275669" lon="9.0970831"><ele>591.0</ele><time>2026-03-28T09:39:13.008Z</time></trkpt><trkpt lat="45.9275231" lon="9.0969657"><ele>591.0</ele><time>2026-03-28T09:39:14.025Z</time></trkpt><trkpt lat="45.9274723" lon="9.096849"><ele>591.0</ele><time>2026-03-28T09:39:15.022Z</time></trkpt><trkpt lat="45.9274369" lon="9.0967324"><ele>591.0</ele><time>2026-03-28T09:39:16.011Z</time></trkpt><trkpt lat="45.9274184" lon="9.0966237"><ele>591.0</ele><time>2026-03-28T09:39:17.03Z</time></trkpt><trkpt lat="45.9274068" lon="9.0965248"><ele>591.0</ele><time>2026-03-28T09:39:18.006Z</time></trkpt><trkpt lat="45.9274034" lon="9.0964237"><ele>591.0</ele><time>2026-03-28T09:39:19.016Z</time></trkpt><trkpt lat="45.9273997" lon="9.0963188"><ele>592.6666666666666</ele><time>2026-03-28T09:39:20.048Z</time></trkpt><trkpt lat="45.9274192" lon="9.0962141"><ele>594.3333333333334</ele><time>2026-03-28T09:39:21.027Z</time></trkpt><trkpt lat="45.9274665" lon="9.0961181"><ele>596.0</ele><time>2026-03-28T09:39:22.04Z</time></trkpt><trkpt lat="45.9275337" lon="9.0960443"><ele>597.6666666666667</ele><time>2026-03-28T09:39:23.008Z</time></trkpt><trkpt lat="45.9275945" lon="9.0959751"><ele>599.3333333333334</ele><time>2026-03-28T09:39:24.023Z</time></trkpt><trkpt lat="45.9276517" lon="9.0959056"><ele>601.0</ele><time>2026-03-28T09:39:25.025Z</time></trkpt><trkpt lat="45.9277237" lon="9.0958623"><ele>603.6</ele><time>2026-03-28T09:39:26.02Z</time></trkpt><trkpt lat="45.9278153" lon="9.0958461"><ele>606.2</ele><time>2026-03-28T09:39:27.021Z</time></trkpt><trkpt lat="45.9279151" lon="9.0958489"><ele>608.8</ele><time>2026-03-28T09:39:28.01Z</time></trkpt><trkpt lat="45.9280043" lon="9.0958853"><ele>611.4</ele><time>2026-03-28T09:39:29.015Z</time></trkpt><trkpt lat="45.9280969" lon="9.0959522"><ele>614.0</ele><time>2026-03-28T09:39:30.026Z</time></trkpt><trkpt lat="45.928138" lon="9.0960847"><ele>614.0</ele><time>2026-03-28T09:39:31.009Z</time></trkpt><trkpt lat="45.928183" lon="9.0962273"><ele>614.0</ele><time>2026-03-28T09:39:32.012Z</time></trkpt><trkpt lat="45.9282287" lon="9.0964437"><ele>614.0</ele><time>2026-03-28T09:39:33.015Z</time></trkpt><trkpt lat="45.9282754" lon="9.0966224"><ele>614.0</ele><time>2026-03-28T09:39:34.017Z</time></trkpt><trkpt lat="45.9283278" lon="9.0968025"><ele>611.8</ele><time>2026-03-28T09:39:35.018Z</time></trkpt><trkpt lat="45.9284088" lon="9.0969179"><ele>609.5999999999999</ele><time>2026-03-28T09:39:36.024Z</time></trkpt><trkpt lat="45.9284887" lon="9.0970164"><ele>607.4</ele><time>2026-03-28T09:39:37.008Z</time></trkpt><trkpt lat="45.9285875" lon="9.0970312"><ele>605.1999999999999</ele><time>2026-03-28T09:39:38.01Z</time></trkpt><trkpt lat="45.9287023" lon="9.0969947"><ele>603.0</ele><time>2026-03-28T09:39:39.024Z</time></trkpt><trkpt lat="45.928812" lon="9.0969606"><ele>603.0</ele><time>2026-03-28T09:39:40.019Z</time></trkpt><trkpt lat="45.928918" lon="9.0969329"><ele>603.0</ele><time>2026-03-28T09:39:41.02Z</time></trkpt><trkpt lat="45.9290261" lon="9.0969076"><ele>603.0</ele><time>2026-03-28T09:39:42.01Z</time></trkpt><trkpt lat="45.9291311" lon="9.0968937"><ele>603.0</ele><time>2026-03-28T09:39:43.017Z</time></trkpt><trkpt lat="45.9292357" lon="9.0968861"><ele>603.0</ele><time>2026-03-28T09:39:44.011Z</time></trkpt><trkpt lat="45.9293353" lon="9.0968969"><ele>601.1666666666666</ele><time>2026-03-28T09:39:45.025Z</time></trkpt><trkpt lat="45.9294312" lon="9.0969141"><ele>599.3333333333334</ele><time>2026-03-28T09:39:46.027Z</time></trkpt><trkpt lat="45.9295229" lon="9.0969299"><ele>597.5</ele><time>2026-03-28T09:39:47.014Z</time></trkpt><trkpt lat="45.9296076" lon="9.0969444"><ele>595.6666666666667</ele><time>2026-03-28T09:39:48Z</time></trkpt><trkpt lat="45.9296877" lon="9.0969487"><ele>593.8333333333334</ele><time>2026-03-28T09:39:49.032Z</time></trkpt><trkpt lat="45.9297619" lon="9.0969517"><ele>592.0</ele><time>2026-03-28T09:39:50.015Z</time></trkpt><trkpt lat="45.9298273" lon="9.0969398"><ele>592.0</ele><time>2026-03-28T09:39:51.022Z</time></trkpt><trkpt lat="45.9299098" lon="9.096914"><ele>592.0</ele><time>2026-03-28T09:39:53.017Z</time></trkpt><trkpt lat="45.929978" lon="9.0968766"><ele>592.0</ele><time>2026-03-28T09:39:55.034Z</time></trkpt><trkpt lat="45.9300181" lon="9.0967445"><ele>592.0</ele><time>2026-03-28T09:39:57.028Z</time></trkpt><trkpt lat="45.9299947" lon="9.0965713"><ele>592.0</ele><time>2026-03-28T09:39:59.008Z</time></trkpt><trkpt lat="45.9299999" lon="9.096472"><ele>594.5</ele><time>2026-03-28T09:40:00.007Z</time></trkpt><trkpt lat="45.9300067" lon="9.0963753"><ele>597.0</ele><time>2026-03-28T09:40:01.015Z</time></trkpt><trkpt lat="45.9300141" lon="9.0962802"><ele>599.5</ele><time>2026-03-28T09:40:02.025Z</time></trkpt><trkpt lat="45.930017" lon="9.096181"><ele>602.0</ele><time>2026-03-28T09:40:03.022Z</time></trkpt><trkpt lat="45.9300163" lon="9.0960865"><ele>604.5</ele><time>2026-03-28T09:40:04.03Z</time></trkpt><trkpt lat="45.9299972" lon="9.0959255"><ele>607.0</ele><time>2026-03-28T09:40:06.015Z</time></trkpt><trkpt lat="45.9299816" lon="9.0958123"><ele>611.0</ele><time>2026-03-28T09:40:08.027Z</time></trkpt><trkpt lat="45.9300655" lon="9.095739"><ele>615.0</ele><time>2026-03-28T09:40:11.043Z</time></trkpt><trkpt lat="45.9301857" lon="9.0957005"><ele>619.0</ele><time>2026-03-28T09:40:13.017Z</time></trkpt><trkpt lat="45.9302539" lon="9.0957063"><ele>623.0</ele><time>2026-03-28T09:40:14.015Z</time></trkpt><trkpt lat="45.9303217" lon="9.0957138"><ele>627.0</ele><time>2026-03-28T09:40:15.019Z</time></trkpt><trkpt lat="45.9303852" lon="9.0957228"><ele>631.0</ele><time>2026-03-28T09:40:16.027Z</time></trkpt><trkpt lat="45.9304503" lon="9.0957361"><ele>631.0</ele><time>2026-03-28T09:40:17.022Z</time></trkpt><trkpt lat="45.9305156" lon="9.0957444"><ele>631.0</ele><time>2026-03-28T09:40:18.015Z</time></trkpt><trkpt lat="45.9305804" lon="9.0957555"><ele>631.0</ele><time>2026-03-28T09:40:19.023Z</time></trkpt><trkpt lat="45.9306616" lon="9.0957823"><ele>631.0</ele><time>2026-03-28T09:40:20.011Z</time></trkpt><trkpt lat="45.9307444" lon="9.0958187"><ele>631.0</ele><time>2026-03-28T09:40:21.023Z</time></trkpt><trkpt lat="45.930834" lon="9.0958507"><ele>631.0</ele><time>2026-03-28T09:40:22.019Z</time></trkpt><trkpt lat="45.9309292" lon="9.095889"><ele>625.8</ele><time>2026-03-28T09:40:23.022Z</time></trkpt><trkpt lat="45.9310281" lon="9.0959218"><ele>620.6</ele><time>2026-03-28T09:40:24.032Z</time></trkpt><trkpt lat="45.931129" lon="9.0959529"><ele>615.4</ele><time>2026-03-28T09:40:25.035Z</time></trkpt><trkpt lat="45.9312197" lon="9.0959737"><ele>610.2</ele><time>2026-03-28T09:40:26.02Z</time></trkpt><trkpt lat="45.9313138" lon="9.0959816"><ele>605.0</ele><time>2026-03-28T09:40:27.024Z</time></trkpt><trkpt lat="45.9314047" lon="9.09598"><ele>605.0</ele><time>2026-03-28T09:40:28.013Z</time></trkpt><trkpt lat="45.931495" lon="9.0959769"><ele>605.0</ele><time>2026-03-28T09:40:29.008Z</time></trkpt><trkpt lat="45.9315909" lon="9.0959688"><ele>605.0</ele><time>2026-03-28T09:40:30.012Z</time></trkpt><trkpt lat="45.9316835" lon="9.0959537"><ele>605.0</ele><time>2026-03-28T09:40:31.017Z</time></trkpt><trkpt lat="45.9317719" lon="9.0959419"><ele>605.0</ele><time>2026-03-28T09:40:32.019Z</time></trkpt><trkpt lat="45.9318411" lon="9.0959333"><ele>605.0</ele><time>2026-03-28T09:40:33.011Z</time></trkpt><trkpt lat="45.9319364" lon="9.0959277"><ele>606.0</ele><time>2026-03-28T09:40:35.025Z</time></trkpt><trkpt lat="45.9320264" lon="9.0959302"><ele>607.0</ele><time>2026-03-28T09:40:37.052Z</time></trkpt><trkpt lat="45.9321734" lon="9.0959409"><ele>608.0</ele><time>2026-03-28T09:40:39.016Z</time></trkpt><trkpt lat="45.9322718" lon="9.0959708"><ele>609.0</ele><time>2026-03-28T09:40:40.01Z</time></trkpt><trkpt lat="45.9323992" lon="9.0960106"><ele>609.0</ele><time>2026-03-28T09:40:41.045Z</time></trkpt><trkpt lat="45.9325392" lon="9.0960665"><ele>609.0</ele><time>2026-03-28T09:40:42.022Z</time></trkpt><trkpt lat="45.932688" lon="9.0961789"><ele>609.0</ele><time>2026-03-28T09:40:43.016Z</time></trkpt><trkpt lat="45.9328237" lon="9.0962886"><ele>613.25</ele><time>2026-03-28T09:40:43.995Z</time></trkpt><trkpt lat="45.9329585" lon="9.0963939"><ele>617.5</ele><time>2026-03-28T09:40:45.023Z</time></trkpt><trkpt lat="45.93309" lon="9.0964725"><ele>621.75</ele><time>2026-03-28T09:40:46.028Z</time></trkpt><trkpt lat="45.9332172" lon="9.096536"><ele>626.0</ele><time>2026-03-28T09:40:47.024Z</time></trkpt><trkpt lat="45.9333594" lon="9.0965853"><ele>622.25</ele><time>2026-03-28T09:40:48.027Z</time></trkpt><trkpt lat="45.933476" lon="9.0966641"><ele>618.5</ele><time>2026-03-28T09:40:49.021Z</time></trkpt><trkpt lat="45.9335971" lon="9.096773"><ele>614.75</ele><time>2026-03-28T09:40:50.024Z</time></trkpt><trkpt lat="45.9336995" lon="9.0968915"><ele>611.0</ele><time>2026-03-28T09:40:51.007Z</time></trkpt><trkpt lat="45.9338045" lon="9.0969708"><ele>611.0</ele><time>2026-03-28T09:40:52.007Z</time></trkpt><trkpt lat="45.933916" lon="9.0970182"><ele>611.0</ele><time>2026-03-28T09:40:53.023Z</time></trkpt><trkpt lat="45.9340282" lon="9.0970648"><ele>611.0</ele><time>2026-03-28T09:40:54.023Z</time></trkpt><trkpt lat="45.9341653" lon="9.097062"><ele>611.0</ele><time>2026-03-28T09:40:55.022Z</time></trkpt><trkpt lat="45.9343032" lon="9.0970515"><ele>606.0</ele><time>2026-03-28T09:40:56.022Z</time></trkpt><trkpt lat="45.9344421" lon="9.0970381"><ele>601.0</ele><time>2026-03-28T09:40:57.008Z</time></trkpt><trkpt lat="45.9345763" lon="9.0970099"><ele>596.0</ele><time>2026-03-28T09:40:58.037Z</time></trkpt><trkpt lat="45.9347091" lon="9.0969797"><ele>591.0</ele><time>2026-03-28T09:40:59.031Z</time></trkpt><trkpt lat="45.9348343" lon="9.0969163"><ele>591.0</ele><time>2026-03-28T09:41:00.027Z</time></trkpt><trkpt lat="45.9349502" lon="9.0967813"><ele>591.0</ele><time>2026-03-28T09:41:01.035Z</time></trkpt><trkpt lat="45.9350635" lon="9.0966255"><ele>591.0</ele><time>2026-03-28T09:41:02.025Z</time></trkpt><trkpt lat="45.9351865" lon="9.09647"><ele>588.3333333333334</ele><time>2026-03-28T09:41:03.014Z</time></trkpt><trkpt lat="45.9353089" lon="9.0963332"><ele>585.6666666666667</ele><time>2026-03-28T09:41:04.023Z</time></trkpt><trkpt lat="45.9354411" lon="9.0962247"><ele>583.0</ele><time>2026-03-28T09:41:05.025Z</time></trkpt><trkpt lat="45.9355753" lon="9.0961007"><ele>583.0</ele><time>2026-03-28T09:41:06.004Z</time></trkpt><trkpt lat="45.9357047" lon="9.0960016"><ele>583.0</ele><time>2026-03-28T09:41:07.052Z</time></trkpt><trkpt lat="45.9358041" lon="9.0959124"><ele>583.0</ele><time>2026-03-28T09:41:08.021Z</time></trkpt><trkpt lat="45.9359051" lon="9.0958089"><ele>583.0</ele><time>2026-03-28T09:41:09.037Z</time></trkpt><trkpt lat="45.9359673" lon="9.0956291"><ele>582.0</ele><time>2026-03-28T09:41:10.023Z</time></trkpt><trkpt lat="45.9360291" lon="9.0954365"><ele>581.0</ele><time>2026-03-28T09:41:11.022Z</time></trkpt><trkpt lat="45.9361146" lon="9.0952581"><ele>580.0</ele><time>2026-03-28T09:41:12.029Z</time></trkpt><trkpt lat="45.9362249" lon="9.0951106"><ele>579.0</ele><time>2026-03-28T09:41:13.021Z</time></trkpt><trkpt lat="45.9363311" lon="9.0949526"><ele>578.3333333333334</ele><time>2026-03-28T09:41:14.022Z</time></trkpt><trkpt lat="45.9364616" lon="9.0948224"><ele>577.6666666666667</ele><time>2026-03-28T09:41:15.023Z</time></trkpt><trkpt lat="45.9366084" lon="9.0947021"><ele>577.0</ele><time>2026-03-28T09:41:16.026Z</time></trkpt><trkpt lat="45.9367526" lon="9.0945364"><ele>577.0</ele><time>2026-03-28T09:41:17.007Z</time></trkpt><trkpt lat="45.9368869" lon="9.0943723"><ele>577.0</ele><time>2026-03-28T09:41:18.026Z</time></trkpt><trkpt lat="45.9370107" lon="9.0942145"><ele>577.0</ele><time>2026-03-28T09:41:19.018Z</time></trkpt><trkpt lat="45.9371645" lon="9.0941086"><ele>573.0</ele><time>2026-03-28T09:41:20.017Z</time></trkpt><trkpt lat="45.9373121" lon="9.0939944"><ele>569.0</ele><time>2026-03-28T09:41:21.012Z</time></trkpt><trkpt lat="45.9374662" lon="9.0939114"><ele>565.0</ele><time>2026-03-28T09:41:22.023Z</time></trkpt><trkpt lat="45.9376129" lon="9.0938273"><ele>565.0</ele><time>2026-03-28T09:41:23.024Z</time></trkpt><trkpt lat="45.9377295" lon="9.0937391"><ele>565.0</ele><time>2026-03-28T09:41:24.017Z</time></trkpt><trkpt lat="45.9378398" lon="9.0936484"><ele>565.0</ele><time>2026-03-28T09:41:25.011Z</time></trkpt><trkpt lat="45.9379463" lon="9.0935524"><ele>565.0</ele><time>2026-03-28T09:41:26.021Z</time></trkpt><trkpt lat="45.9380378" lon="9.0934137"><ele>565.0</ele><time>2026-03-28T09:41:27.02Z</time></trkpt><trkpt lat="45.9381229" lon="9.0932676"><ele>565.0</ele><time>2026-03-28T09:41:28.047Z</time></trkpt><trkpt lat="45.9381715" lon="9.0931079"><ele>565.0</ele><time>2026-03-28T09:41:29.008Z</time></trkpt><trkpt lat="45.9381926" lon="9.0929445"><ele>565.0</ele><time>2026-03-28T09:41:30.012Z</time></trkpt><trkpt lat="45.9382694" lon="9.0927924"><ele>568.8</ele><time>2026-03-28T09:41:31.03Z</time></trkpt><trkpt lat="45.9383459" lon="9.0926771"><ele>572.6</ele><time>2026-03-28T09:41:32.018Z</time></trkpt><trkpt lat="45.9384051" lon="9.0925746"><ele>576.4</ele><time>2026-03-28T09:41:33.027Z</time></trkpt><trkpt lat="45.9384863" lon="9.0924769"><ele>580.2</ele><time>2026-03-28T09:41:34.013Z</time></trkpt><trkpt lat="45.9385451" lon="9.0923278"><ele>584.0</ele><time>2026-03-28T09:41:35.023Z</time></trkpt><trkpt lat="45.9385888" lon="9.0921529"><ele>571.75</ele><time>2026-03-28T09:41:36.013Z</time></trkpt><trkpt lat="45.9386193" lon="9.0919442"><ele>559.5</ele><time>2026-03-28T09:41:37.019Z</time></trkpt><trkpt lat="45.9386545" lon="9.0917557"><ele>547.25</ele><time>2026-03-28T09:41:38.025Z</time></trkpt><trkpt lat="45.9386952" lon="9.0915797"><ele>535.0</ele><time>2026-03-28T09:41:39.021Z</time></trkpt><trkpt lat="45.9386963" lon="9.0913778"><ele>534.75</ele><time>2026-03-28T09:41:40.017Z</time></trkpt><trkpt lat="45.9386749" lon="9.0911831"><ele>534.5</ele><time>2026-03-28T09:41:41.018Z</time></trkpt><trkpt lat="45.9386521" lon="9.0910003"><ele>534.25</ele><time>2026-03-28T09:41:42.025Z</time></trkpt><trkpt lat="45.9386367" lon="9.0908118"><ele>534.0</ele><time>2026-03-28T09:41:43.013Z</time></trkpt><trkpt lat="45.9386027" lon="9.0906249"><ele>535.0</ele><time>2026-03-28T09:41:44.008Z</time></trkpt><trkpt lat="45.9385934" lon="9.0904395"><ele>536.0</ele><time>2026-03-28T09:41:45.016Z</time></trkpt><trkpt lat="45.9386159" lon="9.0902637"><ele>537.0</ele><time>2026-03-28T09:41:46.005Z</time></trkpt><trkpt lat="45.9386592" lon="9.0901081"><ele>538.0</ele><time>2026-03-28T09:41:47.011Z</time></trkpt><trkpt lat="45.9386827" lon="9.0899318"><ele>538.25</ele><time>2026-03-28T09:41:48.02Z</time></trkpt><trkpt lat="45.9386669" lon="9.0897382"><ele>538.5</ele><time>2026-03-28T09:41:49.013Z</time></trkpt><trkpt lat="45.93865" lon="9.0895455"><ele>538.75</ele><time>2026-03-28T09:41:50.014Z</time></trkpt><trkpt lat="45.938638" lon="9.089364"><ele>539.0</ele><time>2026-03-28T09:41:51.022Z</time></trkpt><trkpt lat="45.9386477" lon="9.0891937"><ele>540.25</ele><time>2026-03-28T09:41:51.998Z</time></trkpt><trkpt lat="45.9386847" lon="9.0890284"><ele>541.5</ele><time>2026-03-28T09:41:52.999Z</time></trkpt><trkpt lat="45.9387309" lon="9.0888731"><ele>542.75</ele><time>2026-03-28T09:41:54.016Z</time></trkpt><trkpt lat="45.9388107" lon="9.0887479"><ele>544.0</ele><time>2026-03-28T09:41:55.014Z</time></trkpt><trkpt lat="45.9388612" lon="9.0886204"><ele>544.0</ele><time>2026-03-28T09:41:56.018Z</time></trkpt><trkpt lat="45.9388912" lon="9.0884727"><ele>544.0</ele><time>2026-03-28T09:41:56.998Z</time></trkpt><trkpt lat="45.9388855" lon="9.0883199"><ele>544.0</ele><time>2026-03-28T09:41:58.001Z</time></trkpt><trkpt lat="45.9388759" lon="9.0881424"><ele>544.0</ele><time>2026-03-28T09:41:59.013Z</time></trkpt><trkpt lat="45.9388731" lon="9.0879464"><ele>546.0</ele><time>2026-03-28T09:42:00.008Z</time></trkpt><trkpt lat="45.9388801" lon="9.0877343"><ele>548.0</ele><time>2026-03-28T09:42:01.016Z</time></trkpt><trkpt lat="45.938907" lon="9.0875311"><ele>550.0</ele><time>2026-03-28T09:42:02Z</time></trkpt><trkpt lat="45.9389527" lon="9.0873425"><ele>552.0</ele><time>2026-03-28T09:42:02.998Z</time></trkpt><trkpt lat="45.9389808" lon="9.087134"><ele>555.75</ele><time>2026-03-28T09:42:03.997Z</time></trkpt><trkpt lat="45.9389948" lon="9.086932"><ele>559.5</ele><time>2026-03-28T09:42:05.008Z</time></trkpt><trkpt lat="45.9390075" lon="9.0867599"><ele>563.25</ele><time>2026-03-28T09:42:06.022Z</time></trkpt><trkpt lat="45.9390227" lon="9.0865862"><ele>567.0</ele><time>2026-03-28T09:42:06.998Z</time></trkpt><trkpt lat="45.9390721" lon="9.0864308"><ele>567.25</ele><time>2026-03-28T09:42:07.998Z</time></trkpt><trkpt lat="45.9391573" lon="9.0863074"><ele>567.5</ele><time>2026-03-28T09:42:09.015Z</time></trkpt><trkpt lat="45.939246" lon="9.0861789"><ele>567.75</ele><time>2026-03-28T09:42:10.023Z</time></trkpt><trkpt lat="45.9393085" lon="9.0860441"><ele>568.0</ele><time>2026-03-28T09:42:11.013Z</time></trkpt><trkpt lat="45.9393556" lon="9.0859121"><ele>568.0</ele><time>2026-03-28T09:42:12.006Z</time></trkpt><trkpt lat="45.9393901" lon="9.0857906"><ele>568.0</ele><time>2026-03-28T09:42:13.013Z</time></trkpt><trkpt lat="45.9394332" lon="9.0856954"><ele>568.0</ele><time>2026-03-28T09:42:14.006Z</time></trkpt><trkpt lat="45.9394824" lon="9.0856033"><ele>568.0</ele><time>2026-03-28T09:42:15.014Z</time></trkpt><trkpt lat="45.9395616" lon="9.0855853"><ele>568.0</ele><time>2026-03-28T09:42:16.018Z</time></trkpt><trkpt lat="45.9396554" lon="9.0856052"><ele>568.0</ele><time>2026-03-28T09:42:17.016Z</time></trkpt><trkpt lat="45.9397435" lon="9.0856017"><ele>568.0</ele><time>2026-03-28T09:42:18.01Z</time></trkpt><trkpt lat="45.9398241" lon="9.0856888"><ele>568.0</ele><time>2026-03-28T09:42:19.009Z</time></trkpt><trkpt lat="45.9398911" lon="9.0857873"><ele>568.0</ele><time>2026-03-28T09:42:20.01Z</time></trkpt><trkpt lat="45.9399516" lon="9.0858924"><ele>568.0</ele><time>2026-03-28T09:42:21.019Z</time></trkpt><trkpt lat="45.9399851" lon="9.0860406"><ele>568.0</ele><time>2026-03-28T09:42:22.008Z</time></trkpt><trkpt lat="45.940034" lon="9.0861791"><ele>571.25</ele><time>2026-03-28T09:42:23.004Z</time></trkpt><trkpt lat="45.940103" lon="9.0863331"><ele>574.5</ele><time>2026-03-28T09:42:24.014Z</time></trkpt><trkpt lat="45.9401934" lon="9.086491"><ele>577.75</ele><time>2026-03-28T09:42:25.019Z</time></trkpt><trkpt lat="45.9403069" lon="9.0866333"><ele>581.0</ele><time>2026-03-28T09:42:26.023Z</time></trkpt><trkpt lat="45.9404173" lon="9.086792"><ele>581.0</ele><time>2026-03-28T09:42:27.014Z</time></trkpt><trkpt lat="45.9405135" lon="9.0869646"><ele>581.0</ele><time>2026-03-28T09:42:28.01Z</time></trkpt><trkpt lat="45.9406008" lon="9.0871274"><ele>581.0</ele><time>2026-03-28T09:42:29.019Z</time></trkpt><trkpt lat="45.9406732" lon="9.0872872"><ele>581.0</ele><time>2026-03-28T09:42:30.012Z</time></trkpt><trkpt lat="45.9407449" lon="9.0874444"><ele>580.25</ele><time>2026-03-28T09:42:31.01Z</time></trkpt><trkpt lat="45.9408294" lon="9.0875905"><ele>579.5</ele><time>2026-03-28T09:42:32.022Z</time></trkpt><trkpt lat="45.9409135" lon="9.0877368"><ele>578.75</ele><time>2026-03-28T09:42:33.011Z</time></trkpt><trkpt lat="45.9409943" lon="9.0878846"><ele>578.0</ele><time>2026-03-28T09:42:34.016Z</time></trkpt><trkpt lat="45.9410723" lon="9.0880277"><ele>578.0</ele><time>2026-03-28T09:42:35.009Z</time></trkpt><trkpt lat="45.9411457" lon="9.088164"><ele>578.0</ele><time>2026-03-28T09:42:36.012Z</time></trkpt><trkpt lat="45.9412164" lon="9.0882878"><ele>578.0</ele><time>2026-03-28T09:42:37.008Z</time></trkpt><trkpt lat="45.9412987" lon="9.088398"><ele>578.0</ele><time>2026-03-28T09:42:38.005Z</time></trkpt><trkpt lat="45.9414031" lon="9.0884815"><ele>574.0</ele><time>2026-03-28T09:42:39.009Z</time></trkpt><trkpt lat="45.9415112" lon="9.0885554"><ele>570.0</ele><time>2026-03-28T09:42:40.021Z</time></trkpt><trkpt lat="45.9416393" lon="9.0886096"><ele>566.0</ele><time>2026-03-28T09:42:41.02Z</time></trkpt><trkpt lat="45.9417656" lon="9.0886594"><ele>562.0</ele><time>2026-03-28T09:42:42.016Z</time></trkpt><trkpt lat="45.941883" lon="9.0887006"><ele>561.25</ele><time>2026-03-28T09:42:43.002Z</time></trkpt><trkpt lat="45.941998" lon="9.0887383"><ele>560.5</ele><time>2026-03-28T09:42:44.021Z</time></trkpt><trkpt lat="45.942109" lon="9.0887217"><ele>559.75</ele><time>2026-03-28T09:42:45.011Z</time></trkpt><trkpt lat="45.9422116" lon="9.0886165"><ele>559.0</ele><time>2026-03-28T09:42:46.03Z</time></trkpt><trkpt lat="45.942306" lon="9.0885122"><ele>559.0</ele><time>2026-03-28T09:42:47.028Z</time></trkpt><trkpt lat="45.9424062" lon="9.0884157"><ele>559.0</ele><time>2026-03-28T09:42:48.018Z</time></trkpt><trkpt lat="45.9424987" lon="9.0883264"><ele>559.0</ele><time>2026-03-28T09:42:49.01Z</time></trkpt><trkpt lat="45.9425691" lon="9.0882729"><ele>559.0</ele><time>2026-03-28T09:42:50.023Z</time></trkpt><trkpt lat="45.9427717" lon="9.0882757"><ele>561.0</ele><time>2026-03-28T09:43:34.019Z</time></trkpt><trkpt lat="45.9428883" lon="9.0882347"><ele>563.0</ele><time>2026-03-28T09:43:36.008Z</time></trkpt><trkpt lat="45.9429664" lon="9.088202"><ele>565.0</ele><time>2026-03-28T09:43:37.015Z</time></trkpt><trkpt lat="45.9430507" lon="9.0881644"><ele>567.0</ele><time>2026-03-28T09:43:38.023Z</time></trkpt><trkpt lat="45.9431387" lon="9.0881067"><ele>569.0</ele><time>2026-03-28T09:43:39.007Z</time></trkpt><trkpt lat="45.9432353" lon="9.0880423"><ele>569.0</ele><time>2026-03-28T09:43:40.012Z</time></trkpt><trkpt lat="45.9433424" lon="9.0879302"><ele>569.0</ele><time>2026-03-28T09:43:41.009Z</time></trkpt><trkpt lat="45.9434528" lon="9.0878441"><ele>569.0</ele><time>2026-03-28T09:43:42.02Z</time></trkpt><trkpt lat="45.9435647" lon="9.0877693"><ele>569.0</ele><time>2026-03-28T09:43:43.018Z</time></trkpt><trkpt lat="45.9436852" lon="9.0877122"><ele>567.5</ele><time>2026-03-28T09:43:44.029Z</time></trkpt><trkpt lat="45.9438062" lon="9.0876725"><ele>566.0</ele><time>2026-03-28T09:43:45.041Z</time></trkpt><trkpt lat="45.9439296" lon="9.0876355"><ele>564.5</ele><time>2026-03-28T09:43:46.028Z</time></trkpt><trkpt lat="45.9440534" lon="9.0876052"><ele>563.0</ele><time>2026-03-28T09:43:47.013Z</time></trkpt><trkpt lat="45.9441797" lon="9.0875742"><ele>562.25</ele><time>2026-03-28T09:43:48.031Z</time></trkpt><trkpt lat="45.9443049" lon="9.0875419"><ele>561.5</ele><time>2026-03-28T09:43:49.029Z</time></trkpt><trkpt lat="45.9444319" lon="9.0875123"><ele>560.75</ele><time>2026-03-28T09:43:50.022Z</time></trkpt><trkpt lat="45.9445596" lon="9.0874813"><ele>560.0</ele><time>2026-03-28T09:43:51.005Z</time></trkpt><trkpt lat="45.9446842" lon="9.0874431"><ele>562.0</ele><time>2026-03-28T09:43:52.019Z</time></trkpt><trkpt lat="45.944813" lon="9.087406"><ele>564.0</ele><time>2026-03-28T09:43:53.016Z</time></trkpt><trkpt lat="45.9449373" lon="9.0873616"><ele>566.0</ele><time>2026-03-28T09:43:54.015Z</time></trkpt><trkpt lat="45.9450622" lon="9.0873124"><ele>568.0</ele><time>2026-03-28T09:43:55.011Z</time></trkpt><trkpt lat="45.9451852" lon="9.0872518"><ele>568.0</ele><time>2026-03-28T09:43:56.038Z</time></trkpt><trkpt lat="45.9453004" lon="9.0871959"><ele>568.0</ele><time>2026-03-28T09:43:57.012Z</time></trkpt><trkpt lat="45.94541" lon="9.0871521"><ele>568.0</ele><time>2026-03-28T09:43:58.005Z</time></trkpt><trkpt lat="45.9455112" lon="9.0871384"><ele>568.0</ele><time>2026-03-28T09:43:59.029Z</time></trkpt><trkpt lat="45.9456085" lon="9.0871313"><ele>568.0</ele><time>2026-03-28T09:44:00.009Z</time></trkpt><trkpt lat="45.945703" lon="9.0871984"><ele>568.0</ele><time>2026-03-28T09:44:01.002Z</time></trkpt><trkpt lat="45.9457766" lon="9.087329"><ele>568.0</ele><time>2026-03-28T09:44:02.003Z</time></trkpt><trkpt lat="45.9458245" lon="9.0874888"><ele>568.0</ele><time>2026-03-28T09:44:03.013Z</time></trkpt><trkpt lat="45.9458851" lon="9.0876341"><ele>568.0</ele><time>2026-03-28T09:44:04.001Z</time></trkpt><trkpt lat="45.9459654" lon="9.0877588"><ele>567.4</ele><time>2026-03-28T09:44:04.997Z</time></trkpt><trkpt lat="45.946045" lon="9.0878666"><ele>566.8</ele><time>2026-03-28T09:44:06.011Z</time></trkpt><trkpt lat="45.9461221" lon="9.0879713"><ele>566.2</ele><time>2026-03-28T09:44:07.013Z</time></trkpt><trkpt lat="45.9461992" lon="9.0880781"><ele>565.6</ele><time>2026-03-28T09:44:08.023Z</time></trkpt><trkpt lat="45.946283" lon="9.0881807"><ele>565.0</ele><time>2026-03-28T09:44:09.023Z</time></trkpt><trkpt lat="45.9463706" lon="9.0882863"><ele>565.0</ele><time>2026-03-28T09:44:10.008Z</time></trkpt><trkpt lat="45.9464597" lon="9.0883903"><ele>565.0</ele><time>2026-03-28T09:44:10.995Z</time></trkpt><trkpt lat="45.9465456" lon="9.0884927"><ele>565.0</ele><time>2026-03-28T09:44:12.019Z</time></trkpt><trkpt lat="45.9466237" lon="9.0885976"><ele>565.0</ele><time>2026-03-28T09:44:13Z</time></trkpt><trkpt lat="45.9467043" lon="9.0886962"><ele>565.0</ele><time>2026-03-28T09:44:14.007Z</time></trkpt><trkpt lat="45.9467972" lon="9.0887744"><ele>567.4</ele><time>2026-03-28T09:44:15.022Z</time></trkpt><trkpt lat="45.9468956" lon="9.0888276"><ele>569.8</ele><time>2026-03-28T09:44:16.006Z</time></trkpt><trkpt lat="45.9469966" lon="9.0888797"><ele>572.2</ele><time>2026-03-28T09:44:17.01Z</time></trkpt><trkpt lat="45.9470906" lon="9.0889384"><ele>574.6</ele><time>2026-03-28T09:44:18.007Z</time></trkpt><trkpt lat="45.9471752" lon="9.0890045"><ele>577.0</ele><time>2026-03-28T09:44:19.012Z</time></trkpt><trkpt lat="45.9472519" lon="9.0890659"><ele>575.8000000000001</ele><time>2026-03-28T09:44:20.013Z</time></trkpt><trkpt lat="45.9473194" lon="9.0891174"><ele>574.6</ele><time>2026-03-28T09:44:20.992Z</time></trkpt><trkpt lat="45.9473915" lon="9.0891704"><ele>573.4000000000001</ele><time>2026-03-28T09:44:22.009Z</time></trkpt><trkpt lat="45.9474705" lon="9.089236"><ele>572.2</ele><time>2026-03-28T09:44:23.007Z</time></trkpt><trkpt lat="45.9475488" lon="9.0893064"><ele>571.0</ele><time>2026-03-28T09:44:24.026Z</time></trkpt><trkpt lat="45.947634" lon="9.089404"><ele>574.25</ele><time>2026-03-28T09:44:25Z</time></trkpt><trkpt lat="45.9477316" lon="9.0895038"><ele>577.5</ele><time>2026-03-28T09:44:26.002Z</time></trkpt><trkpt lat="45.9478445" lon="9.0896047"><ele>580.75</ele><time>2026-03-28T09:44:27.013Z</time></trkpt><trkpt lat="45.9479711" lon="9.0896769"><ele>584.0</ele><time>2026-03-28T09:44:28.01Z</time></trkpt><trkpt lat="45.9481115" lon="9.0897081"><ele>584.0</ele><time>2026-03-28T09:44:29.004Z</time></trkpt><trkpt lat="45.9482509" lon="9.0897059"><ele>584.0</ele><time>2026-03-28T09:44:30.024Z</time></trkpt><trkpt lat="45.94839" lon="9.0896816"><ele>584.0</ele><time>2026-03-28T09:44:31.013Z</time></trkpt><trkpt lat="45.948534" lon="9.089651"><ele>584.0</ele><time>2026-03-28T09:44:32.007Z</time></trkpt><trkpt lat="45.9486844" lon="9.0896175"><ele>584.6666666666666</ele><time>2026-03-28T09:44:33.018Z</time></trkpt><trkpt lat="45.9488572" lon="9.0895772"><ele>585.3333333333334</ele><time>2026-03-28T09:44:34.023Z</time></trkpt><trkpt lat="45.9490361" lon="9.0895356"><ele>586.0</ele><time>2026-03-28T09:44:35.029Z</time></trkpt><trkpt lat="45.9492767" lon="9.0894778"><ele>587.0</ele><time>2026-03-28T09:44:36.014Z</time></trkpt><trkpt lat="45.9495024" lon="9.0894223"><ele>588.0</ele><time>2026-03-28T09:44:37.01Z</time></trkpt><trkpt lat="45.9497216" lon="9.0893742"><ele>588.0</ele><time>2026-03-28T09:44:38.002Z</time></trkpt><trkpt lat="45.9499252" lon="9.0893385"><ele>588.0</ele><time>2026-03-28T09:44:39.004Z</time></trkpt><trkpt lat="45.9501192" lon="9.0892816"><ele>588.0</ele><time>2026-03-28T09:44:40.003Z</time></trkpt><trkpt lat="45.9502685" lon="9.0892431"><ele>586.3333333333334</ele><time>2026-03-28T09:44:41.016Z</time></trkpt><trkpt lat="45.9504263" lon="9.0891819"><ele>584.6666666666667</ele><time>2026-03-28T09:44:42.002Z</time></trkpt><trkpt lat="45.9505761" lon="9.0891204"><ele>583.0</ele><time>2026-03-28T09:44:43.016Z</time></trkpt><trkpt lat="45.9507206" lon="9.0890652"><ele>585.6666666666667</ele><time>2026-03-28T09:44:44.01Z</time></trkpt><trkpt lat="45.9508626" lon="9.0889845"><ele>588.3333333333334</ele><time>2026-03-28T09:44:45.008Z</time></trkpt><trkpt lat="45.9510033" lon="9.0888882"><ele>591.0</ele><time>2026-03-28T09:44:46.018Z</time></trkpt><trkpt lat="45.9511517" lon="9.0887511"><ele>591.0</ele><time>2026-03-28T09:44:47.037Z</time></trkpt><trkpt lat="45.951295" lon="9.0886127"><ele>591.0</ele><time>2026-03-28T09:44:48.032Z</time></trkpt><trkpt lat="45.9514413" lon="9.0884832"><ele>591.0</ele><time>2026-03-28T09:44:49.021Z</time></trkpt><trkpt lat="45.9515969" lon="9.0883724"><ele>590.3333333333334</ele><time>2026-03-28T09:44:50.021Z</time></trkpt><trkpt lat="45.9517598" lon="9.0882899"><ele>589.6666666666667</ele><time>2026-03-28T09:44:51.01Z</time></trkpt><trkpt lat="45.9519305" lon="9.0882331"><ele>589.0</ele><time>2026-03-28T09:44:51.999Z</time></trkpt><trkpt lat="45.9521044" lon="9.0881813"><ele>591.3333333333334</ele><time>2026-03-28T09:44:53.029Z</time></trkpt><trkpt lat="45.952281" lon="9.0881263"><ele>593.6666666666666</ele><time>2026-03-28T09:44:54.02Z</time></trkpt><trkpt lat="45.9524492" lon="9.0880711"><ele>596.0</ele><time>2026-03-28T09:44:55.007Z</time></trkpt><trkpt lat="45.9525979" lon="9.0880208"><ele>596.0</ele><time>2026-03-28T09:44:56.003Z</time></trkpt><trkpt lat="45.9527346" lon="9.0879631"><ele>596.0</ele><time>2026-03-28T09:44:57.014Z</time></trkpt><trkpt lat="45.9528468" lon="9.0879088"><ele>596.0</ele><time>2026-03-28T09:44:58.036Z</time></trkpt><trkpt lat="45.9529604" lon="9.0878484"><ele>596.0</ele><time>2026-03-28T09:44:59.015Z</time></trkpt><trkpt lat="45.9530838" lon="9.08778"><ele>596.0</ele><time>2026-03-28T09:45:00.006Z</time></trkpt><trkpt lat="45.9532037" lon="9.0876785"><ele>596.0</ele><time>2026-03-28T09:45:01.022Z</time></trkpt><trkpt lat="45.9533174" lon="9.0875576"><ele>596.0</ele><time>2026-03-28T09:45:02.021Z</time></trkpt><trkpt lat="45.9534287" lon="9.0874023"><ele>596.0</ele><time>2026-03-28T09:45:03.015Z</time></trkpt><trkpt lat="45.953535" lon="9.0872263"><ele>593.0</ele><time>2026-03-28T09:45:04.021Z</time></trkpt><trkpt lat="45.9536382" lon="9.0870538"><ele>590.0</ele><time>2026-03-28T09:45:05.013Z</time></trkpt><trkpt lat="45.9537363" lon="9.0868864"><ele>587.0</ele><time>2026-03-28T09:45:06.009Z</time></trkpt><trkpt lat="45.9538413" lon="9.0867178"><ele>588.75</ele><time>2026-03-28T09:45:07.019Z</time></trkpt><trkpt lat="45.9539416" lon="9.086571"><ele>590.5</ele><time>2026-03-28T09:45:08.025Z</time></trkpt><trkpt lat="45.9540229" lon="9.0864375"><ele>592.25</ele><time>2026-03-28T09:45:09.018Z</time></trkpt><trkpt lat="45.9541078" lon="9.086319"><ele>594.0</ele><time>2026-03-28T09:45:10.032Z</time></trkpt><trkpt lat="45.9541906" lon="9.0862173"><ele>594.0</ele><time>2026-03-28T09:45:11.005Z</time></trkpt><trkpt lat="45.9542913" lon="9.0861481"><ele>594.0</ele><time>2026-03-28T09:45:12.016Z</time></trkpt><trkpt lat="45.9543898" lon="9.0860769"><ele>594.0</ele><time>2026-03-28T09:45:13Z</time></trkpt><trkpt lat="45.9545058" lon="9.0860997"><ele>594.0</ele><time>2026-03-28T09:45:13.995Z</time></trkpt><trkpt lat="45.9546261" lon="9.0861699"><ele>594.0</ele><time>2026-03-28T09:45:14.994Z</time></trkpt><trkpt lat="45.954738" lon="9.0862879"><ele>594.0</ele><time>2026-03-28T09:45:16.009Z</time></trkpt><trkpt lat="45.9548434" lon="9.0864143"><ele>594.0</ele><time>2026-03-28T09:45:17.004Z</time></trkpt><trkpt lat="45.9549514" lon="9.0865187"><ele>594.0</ele><time>2026-03-28T09:45:18.008Z</time></trkpt><trkpt lat="45.9550526" lon="9.0865847"><ele>593.8</ele><time>2026-03-28T09:45:18.997Z</time></trkpt><trkpt lat="45.9551524" lon="9.0866156"><ele>593.5999999999999</ele><time>2026-03-28T09:45:19.992Z</time></trkpt><trkpt lat="45.955257" lon="9.0866422"><ele>593.4</ele><time>2026-03-28T09:45:21.006Z</time></trkpt><trkpt lat="45.9553691" lon="9.0866095"><ele>593.1999999999999</ele><time>2026-03-28T09:45:22.024Z</time></trkpt><trkpt lat="45.9554834" lon="9.0865351"><ele>593.0</ele><time>2026-03-28T09:45:23.012Z</time></trkpt><trkpt lat="45.9555962" lon="9.0864448"><ele>593.0</ele><time>2026-03-28T09:45:24.016Z</time></trkpt><trkpt lat="45.9556752" lon="9.0862991"><ele>593.0</ele><time>2026-03-28T09:45:25.009Z</time></trkpt><trkpt lat="45.955756" lon="9.0861493"><ele>593.0</ele><time>2026-03-28T09:45:26.019Z</time></trkpt><trkpt lat="45.9558532" lon="9.0860121"><ele>593.0</ele><time>2026-03-28T09:45:27.018Z</time></trkpt><trkpt lat="45.9559627" lon="9.0858864"><ele>593.0</ele><time>2026-03-28T09:45:27.999Z</time></trkpt><trkpt lat="45.9560891" lon="9.0858022"><ele>593.0</ele><time>2026-03-28T09:45:29.017Z</time></trkpt><trkpt lat="45.9562241" lon="9.0857106"><ele>593.0</ele><time>2026-03-28T09:45:30.013Z</time></trkpt><trkpt lat="45.9563598" lon="9.0856223"><ele>593.0</ele><time>2026-03-28T09:45:31.028Z</time></trkpt><trkpt lat="45.956483" lon="9.0855155"><ele>593.0</ele><time>2026-03-28T09:45:32.033Z</time></trkpt><trkpt lat="45.9565942" lon="9.0853945"><ele>593.0</ele><time>2026-03-28T09:45:33.022Z</time></trkpt><trkpt lat="45.9567074" lon="9.0852784"><ele>593.0</ele><time>2026-03-28T09:45:34.011Z</time></trkpt><trkpt lat="45.9568097" lon="9.0851801"><ele>593.0</ele><time>2026-03-28T09:45:35.01Z</time></trkpt><trkpt lat="45.9568907" lon="9.085088"><ele>593.1666666666666</ele><time>2026-03-28T09:45:36.007Z</time></trkpt><trkpt lat="45.95697" lon="9.0850049"><ele>593.3333333333333</ele><time>2026-03-28T09:45:36.995Z</time></trkpt><trkpt lat="45.9570388" lon="9.084917"><ele>593.5</ele><time>2026-03-28T09:45:38.009Z</time></trkpt><trkpt lat="45.9571036" lon="9.0848354"><ele>593.6666666666666</ele><time>2026-03-28T09:45:39.012Z</time></trkpt><trkpt lat="45.9571582" lon="9.0847726"><ele>593.8333333333334</ele><time>2026-03-28T09:45:40.011Z</time></trkpt><trkpt lat="45.9572395" lon="9.0847694"><ele>594.0</ele><time>2026-03-28T09:45:41.027Z</time></trkpt><trkpt lat="45.9573199" lon="9.084808"><ele>594.0</ele><time>2026-03-28T09:45:42.011Z</time></trkpt><trkpt lat="45.9573795" lon="9.0849011"><ele>594.0</ele><time>2026-03-28T09:45:43.014Z</time></trkpt><trkpt lat="45.9574055" lon="9.085024"><ele>594.0</ele><time>2026-03-28T09:45:44.01Z</time></trkpt><trkpt lat="45.9574248" lon="9.0851575"><ele>594.0</ele><time>2026-03-28T09:45:45.013Z</time></trkpt><trkpt lat="45.9574258" lon="9.085307"><ele>594.0</ele><time>2026-03-28T09:45:46.023Z</time></trkpt><trkpt lat="45.9574076" lon="9.0854508"><ele>594.2</ele><time>2026-03-28T09:45:47.022Z</time></trkpt><trkpt lat="45.9573821" lon="9.0855879"><ele>594.4</ele><time>2026-03-28T09:45:48.001Z</time></trkpt><trkpt lat="45.9573445" lon="9.0857205"><ele>594.6</ele><time>2026-03-28T09:45:49.014Z</time></trkpt><trkpt lat="45.9572908" lon="9.0858351"><ele>594.8</ele><time>2026-03-28T09:45:50.008Z</time></trkpt><trkpt lat="45.9572322" lon="9.0859443"><ele>595.0</ele><time>2026-03-28T09:45:51.005Z</time></trkpt><trkpt lat="45.9571377" lon="9.0860082"><ele>595.0</ele><time>2026-03-28T09:45:52.019Z</time></trkpt><trkpt lat="45.9570416" lon="9.0860955"><ele>595.0</ele><time>2026-03-28T09:45:53.005Z</time></trkpt><trkpt lat="45.956955" lon="9.0861935"><ele>595.0</ele><time>2026-03-28T09:45:54.009Z</time></trkpt><trkpt lat="45.9568852" lon="9.0863484"><ele>595.0</ele><time>2026-03-28T09:45:55Z</time></trkpt><trkpt lat="45.9568186" lon="9.086501"><ele>593.0</ele><time>2026-03-28T09:45:56.006Z</time></trkpt><trkpt lat="45.956743" lon="9.0866695"><ele>591.0</ele><time>2026-03-28T09:45:57.005Z</time></trkpt><trkpt lat="45.9566563" lon="9.0868119"><ele>589.0</ele><time>2026-03-28T09:45:58.012Z</time></trkpt><trkpt lat="45.9565588" lon="9.0869082"><ele>587.0</ele><time>2026-03-28T09:45:59Z</time></trkpt><trkpt lat="45.9564711" lon="9.0870122"><ele>587.0</ele><time>2026-03-28T09:46:00.019Z</time></trkpt><trkpt lat="45.9564185" lon="9.0871515"><ele>587.0</ele><time>2026-03-28T09:46:01.021Z</time></trkpt><trkpt lat="45.9563951" lon="9.0872948"><ele>587.0</ele><time>2026-03-28T09:46:02.019Z</time></trkpt><trkpt lat="45.956383" lon="9.0874569"><ele>587.0</ele><time>2026-03-28T09:46:03.021Z</time></trkpt><trkpt lat="45.9563673" lon="9.0876137"><ele>587.0</ele><time>2026-03-28T09:46:04.025Z</time></trkpt><trkpt lat="45.9563393" lon="9.0877671"><ele>588.4</ele><time>2026-03-28T09:46:05.012Z</time></trkpt><trkpt lat="45.9562913" lon="9.0879144"><ele>589.8000000000001</ele><time>2026-03-28T09:46:06.026Z</time></trkpt><trkpt lat="45.9562273" lon="9.0880363"><ele>591.2</ele><time>2026-03-28T09:46:07.028Z</time></trkpt><trkpt lat="45.956139" lon="9.0881339"><ele>592.6</ele><time>2026-03-28T09:46:08.009Z</time></trkpt><trkpt lat="45.9560384" lon="9.0882091"><ele>594.0</ele><time>2026-03-28T09:46:09.021Z</time></trkpt><trkpt lat="45.9559415" lon="9.0882607"><ele>592.8</ele><time>2026-03-28T09:46:10.014Z</time></trkpt><trkpt lat="45.9558378" lon="9.0883289"><ele>591.5999999999999</ele><time>2026-03-28T09:46:11.018Z</time></trkpt><trkpt lat="45.9557417" lon="9.0883882"><ele>590.4</ele><time>2026-03-28T09:46:12.007Z</time></trkpt><trkpt lat="45.9556637" lon="9.0884739"><ele>589.1999999999999</ele><time>2026-03-28T09:46:13.015Z</time></trkpt><trkpt lat="45.9555929" lon="9.0885764"><ele>588.0</ele><time>2026-03-28T09:46:14.006Z</time></trkpt><trkpt lat="45.9555213" lon="9.0886702"><ele>588.0</ele><time>2026-03-28T09:46:15.013Z</time></trkpt><trkpt lat="45.9554626" lon="9.0887937"><ele>588.0</ele><time>2026-03-28T09:46:16.004Z</time></trkpt><trkpt lat="45.9554087" lon="9.0889309"><ele>588.0</ele><time>2026-03-28T09:46:17.007Z</time></trkpt><trkpt lat="45.9553567" lon="9.0890665"><ele>588.0</ele><time>2026-03-28T09:46:18.007Z</time></trkpt><trkpt lat="45.9553119" lon="9.0892047"><ele>588.0</ele><time>2026-03-28T09:46:19.008Z</time></trkpt><trkpt lat="45.9552749" lon="9.0893313"><ele>589.4</ele><time>2026-03-28T09:46:20.024Z</time></trkpt><trkpt lat="45.9552395" lon="9.0894512"><ele>590.8</ele><time>2026-03-28T09:46:21.007Z</time></trkpt><trkpt lat="45.9552154" lon="9.0895582"><ele>592.2</ele><time>2026-03-28T09:46:22.003Z</time></trkpt><trkpt lat="45.9552221" lon="9.0896578"><ele>593.6</ele><time>2026-03-28T09:46:23.019Z</time></trkpt><trkpt lat="45.9553054" lon="9.0897539"><ele>595.0</ele><time>2026-03-28T09:46:25.003Z</time></trkpt><trkpt lat="45.9554555" lon="9.0897146"><ele>595.0</ele><time>2026-03-28T09:46:32.996Z</time></trkpt><trkpt lat="45.9555643" lon="9.0895732"><ele>595.0</ele><time>2026-03-28T09:46:34.992Z</time></trkpt><trkpt lat="45.955638" lon="9.0894822"><ele>595.0</ele><time>2026-03-28T09:46:36.027Z</time></trkpt><trkpt lat="45.9557161" lon="9.0893848"><ele>595.0</ele><time>2026-03-28T09:46:37.009Z</time></trkpt><trkpt lat="45.955794" lon="9.0892902"><ele>595.0</ele><time>2026-03-28T09:46:38.024Z</time></trkpt><trkpt lat="45.95588" lon="9.0891919"><ele>596.25</ele><time>2026-03-28T09:46:39.008Z</time></trkpt><trkpt lat="45.9559686" lon="9.0890871"><ele>597.5</ele><time>2026-03-28T09:46:40.015Z</time></trkpt><trkpt lat="45.9560705" lon="9.088966"><ele>598.75</ele><time>2026-03-28T09:46:41.01Z</time></trkpt><trkpt lat="45.9561799" lon="9.0888375"><ele>600.0</ele><time>2026-03-28T09:46:42.022Z</time></trkpt><trkpt lat="45.9562894" lon="9.0887026"><ele>600.0</ele><time>2026-03-28T09:46:43.006Z</time></trkpt><trkpt lat="45.9563932" lon="9.0885674"><ele>600.0</ele><time>2026-03-28T09:46:44.006Z</time></trkpt><trkpt lat="45.9565005" lon="9.0884375"><ele>600.0</ele><time>2026-03-28T09:46:45.009Z</time></trkpt><trkpt lat="45.9565963" lon="9.0883343"><ele>600.0</ele><time>2026-03-28T09:46:46.029Z</time></trkpt><trkpt lat="45.9566814" lon="9.0882785"><ele>602.4</ele><time>2026-03-28T09:46:47.009Z</time></trkpt><trkpt lat="45.9567631" lon="9.0882702"><ele>604.8</ele><time>2026-03-28T09:46:48.006Z</time></trkpt><trkpt lat="45.9568352" lon="9.0883468"><ele>607.2</ele><time>2026-03-28T09:46:48.992Z</time></trkpt><trkpt lat="45.9568745" lon="9.0884798"><ele>609.6</ele><time>2026-03-28T09:46:49.989Z</time></trkpt><trkpt lat="45.9569049" lon="9.0886598"><ele>612.0</ele><time>2026-03-28T09:46:50.988Z</time></trkpt><trkpt lat="45.9568779" lon="9.0889353"><ele>613.3333333333334</ele><time>2026-03-28T09:46:52.003Z</time></trkpt><trkpt lat="45.9568236" lon="9.0891896"><ele>614.6666666666667</ele><time>2026-03-28T09:46:53.02Z</time></trkpt><trkpt lat="45.9567656" lon="9.0894111"><ele>616.0</ele><time>2026-03-28T09:46:54.009Z</time></trkpt><trkpt lat="45.9567185" lon="9.0896199"><ele>616.4</ele><time>2026-03-28T09:46:55.004Z</time></trkpt><trkpt lat="45.9566802" lon="9.0897877"><ele>616.8</ele><time>2026-03-28T09:46:56.022Z</time></trkpt><trkpt lat="45.9566696" lon="9.0899462"><ele>617.1999999999999</ele><time>2026-03-28T09:46:57.006Z</time></trkpt><trkpt lat="45.956668" lon="9.0900816"><ele>617.6</ele><time>2026-03-28T09:46:58.015Z</time></trkpt><trkpt lat="45.9567207" lon="9.0901555"><ele>618.0</ele><time>2026-03-28T09:46:59.015Z</time></trkpt><trkpt lat="45.9568032" lon="9.0901239"><ele>618.0</ele><time>2026-03-28T09:47:00.014Z</time></trkpt><trkpt lat="45.9569036" lon="9.0900999"><ele>618.0</ele><time>2026-03-28T09:47:01.011Z</time></trkpt><trkpt lat="45.9570056" lon="9.0899634"><ele>618.0</ele><time>2026-03-28T09:47:02.014Z</time></trkpt><trkpt lat="45.9570759" lon="9.0897513"><ele>618.0</ele><time>2026-03-28T09:47:03.007Z</time></trkpt><trkpt lat="45.9571467" lon="9.0894861"><ele>617.3333333333334</ele><time>2026-03-28T09:47:04Z</time></trkpt><trkpt lat="45.9572405" lon="9.0892131"><ele>616.6666666666667</ele><time>2026-03-28T09:47:05.004Z</time></trkpt><trkpt lat="45.9573266" lon="9.0889613"><ele>616.0</ele><time>2026-03-28T09:47:06.014Z</time></trkpt><trkpt lat="45.957409" lon="9.0887225"><ele>614.6666666666667</ele><time>2026-03-28T09:47:07.022Z</time></trkpt><trkpt lat="45.9574975" lon="9.0885326"><ele>613.3333333333334</ele><time>2026-03-28T09:47:08.038Z</time></trkpt><trkpt lat="45.9576218" lon="9.0883682"><ele>612.0</ele><time>2026-03-28T09:47:09.029Z</time></trkpt><trkpt lat="45.9577628" lon="9.0882212"><ele>615.3333333333334</ele><time>2026-03-28T09:47:10.013Z</time></trkpt><trkpt lat="45.9579166" lon="9.088095"><ele>618.6666666666667</ele><time>2026-03-28T09:47:11.018Z</time></trkpt><trkpt lat="45.9580714" lon="9.0879576"><ele>622.0</ele><time>2026-03-28T09:47:12.004Z</time></trkpt><trkpt lat="45.9582062" lon="9.0878676"><ele>622.0</ele><time>2026-03-28T09:47:13.011Z</time></trkpt><trkpt lat="45.958329" lon="9.0877839"><ele>622.0</ele><time>2026-03-28T09:47:14.012Z</time></trkpt><trkpt lat="45.9584437" lon="9.0876973"><ele>622.0</ele><time>2026-03-28T09:47:15.005Z</time></trkpt><trkpt lat="45.9585532" lon="9.0876082"><ele>622.0</ele><time>2026-03-28T09:47:16.014Z</time></trkpt><trkpt lat="45.9586638" lon="9.0875207"><ele>622.25</ele><time>2026-03-28T09:47:17.023Z</time></trkpt><trkpt lat="45.9587699" lon="9.0874302"><ele>622.5</ele><time>2026-03-28T09:47:18.016Z</time></trkpt><trkpt lat="45.9588816" lon="9.0873397"><ele>622.75</ele><time>2026-03-28T09:47:19.009Z</time></trkpt><trkpt lat="45.959" lon="9.0872519"><ele>623.0</ele><time>2026-03-28T09:47:19.992Z</time></trkpt><trkpt lat="45.959116" lon="9.087157"><ele>624.4</ele><time>2026-03-28T09:47:21.028Z</time></trkpt><trkpt lat="45.9592231" lon="9.0870741"><ele>625.8</ele><time>2026-03-28T09:47:22.028Z</time></trkpt><trkpt lat="45.959315" lon="9.0870036"><ele>627.2</ele><time>2026-03-28T09:47:23.008Z</time></trkpt><trkpt lat="45.959402" lon="9.0869369"><ele>628.6</ele><time>2026-03-28T09:47:24.002Z</time></trkpt><trkpt lat="45.9594833" lon="9.0868636"><ele>630.0</ele><time>2026-03-28T09:47:25.017Z</time></trkpt><trkpt lat="45.9595597" lon="9.0867795"><ele>630.0</ele><time>2026-03-28T09:47:26.027Z</time></trkpt><trkpt lat="45.9596319" lon="9.0866831"><ele>630.0</ele><time>2026-03-28T09:47:27.023Z</time></trkpt><trkpt lat="45.9597016" lon="9.0865791"><ele>630.0</ele><time>2026-03-28T09:47:28.004Z</time></trkpt><trkpt lat="45.9597692" lon="9.0864733"><ele>630.0</ele><time>2026-03-28T09:47:29.018Z</time></trkpt><trkpt lat="45.9598405" lon="9.0863709"><ele>630.0</ele><time>2026-03-28T09:47:30.008Z</time></trkpt><trkpt lat="45.9599189" lon="9.0862787"><ele>629.6666666666666</ele><time>2026-03-28T09:47:31.004Z</time></trkpt><trkpt lat="45.9599989" lon="9.086201"><ele>629.3333333333334</ele><time>2026-03-28T09:47:32.006Z</time></trkpt><trkpt lat="45.9600759" lon="9.0861345"><ele>629.0</ele><time>2026-03-28T09:47:33.002Z</time></trkpt><trkpt lat="45.9601513" lon="9.0860716"><ele>628.6666666666667</ele><time>2026-03-28T09:47:34.007Z</time></trkpt><trkpt lat="45.9602193" lon="9.0860173"><ele>628.3333333333334</ele><time>2026-03-28T09:47:35.007Z</time></trkpt><trkpt lat="45.9602799" lon="9.0859645"><ele>628.0</ele><time>2026-03-28T09:47:36.003Z</time></trkpt><trkpt lat="45.9603309" lon="9.0858863"><ele>629.0</ele><time>2026-03-28T09:47:37.008Z</time></trkpt><trkpt lat="45.9603673" lon="9.0857876"><ele>630.0</ele><time>2026-03-28T09:47:38.001Z</time></trkpt><trkpt lat="45.9604051" lon="9.0856645"><ele>631.0</ele><time>2026-03-28T09:47:38.999Z</time></trkpt><trkpt lat="45.9604515" lon="9.0855397"><ele>632.0</ele><time>2026-03-28T09:47:40.011Z</time></trkpt><trkpt lat="45.9605093" lon="9.0854232"><ele>633.0</ele><time>2026-03-28T09:47:41.018Z</time></trkpt><trkpt lat="45.9605681" lon="9.0853141"><ele>633.0</ele><time>2026-03-28T09:47:41.997Z</time></trkpt><trkpt lat="45.9606193" lon="9.0852116"><ele>633.0</ele><time>2026-03-28T09:47:43.01Z</time></trkpt><trkpt lat="45.9606623" lon="9.0851052"><ele>633.0</ele><time>2026-03-28T09:47:44.017Z</time></trkpt><trkpt lat="45.9607035" lon="9.0849895"><ele>633.0</ele><time>2026-03-28T09:47:44.999Z</time></trkpt><trkpt lat="45.9607467" lon="9.0848678"><ele>633.0</ele><time>2026-03-28T09:47:46.006Z</time></trkpt><trkpt lat="45.960794" lon="9.084741"><ele>631.4</ele><time>2026-03-28T09:47:47.025Z</time></trkpt><trkpt lat="45.9608494" lon="9.0846158"><ele>629.8</ele><time>2026-03-28T09:47:48.015Z</time></trkpt><trkpt lat="45.9609124" lon="9.0844933"><ele>628.2</ele><time>2026-03-28T09:47:49.006Z</time></trkpt><trkpt lat="45.9609794" lon="9.0843723"><ele>626.6</ele><time>2026-03-28T09:47:50.033Z</time></trkpt><trkpt lat="45.9610479" lon="9.0842497"><ele>625.0</ele><time>2026-03-28T09:47:51.003Z</time></trkpt><trkpt lat="45.9611155" lon="9.0841257"><ele>627.2</ele><time>2026-03-28T09:47:52.02Z</time></trkpt><trkpt lat="45.9611788" lon="9.0839984"><ele>629.4</ele><time>2026-03-28T09:47:53.041Z</time></trkpt><trkpt lat="45.9612314" lon="9.0838656"><ele>631.6</ele><time>2026-03-28T09:47:54.01Z</time></trkpt><trkpt lat="45.961276" lon="9.0837295"><ele>633.8</ele><time>2026-03-28T09:47:55.03Z</time></trkpt><trkpt lat="45.9613176" lon="9.0835946"><ele>636.0</ele><time>2026-03-28T09:47:56.009Z</time></trkpt><trkpt lat="45.9613528" lon="9.0834615"><ele>636.0</ele><time>2026-03-28T09:47:57.035Z</time></trkpt><trkpt lat="45.961383" lon="9.0833302"><ele>636.0</ele><time>2026-03-28T09:47:58.008Z</time></trkpt><trkpt lat="45.9614071" lon="9.0831989"><ele>636.0</ele><time>2026-03-28T09:47:59.014Z</time></trkpt><trkpt lat="45.9614268" lon="9.0830671"><ele>636.0</ele><time>2026-03-28T09:47:59.996Z</time></trkpt><trkpt lat="45.9614435" lon="9.0829351"><ele>636.0</ele><time>2026-03-28T09:48:01.007Z</time></trkpt><trkpt lat="45.9614554" lon="9.0828093"><ele>635.8571428571428</ele><time>2026-03-28T09:48:02.02Z</time></trkpt><trkpt lat="45.9614622" lon="9.0826998"><ele>635.7142857142858</ele><time>2026-03-28T09:48:03.008Z</time></trkpt><trkpt lat="45.9614687" lon="9.0825943"><ele>635.5714285714286</ele><time>2026-03-28T09:48:04.01Z</time></trkpt><trkpt lat="45.9614754" lon="9.0824887"><ele>635.4285714285713</ele><time>2026-03-28T09:48:05.024Z</time></trkpt><trkpt lat="45.9614826" lon="9.0823901"><ele>635.2857142857142</ele><time>2026-03-28T09:48:06.007Z</time></trkpt><trkpt lat="45.9614904" lon="9.0822986"><ele>635.1428571428571</ele><time>2026-03-28T09:48:07.011Z</time></trkpt><trkpt lat="45.961509" lon="9.0821764"><ele>635.0</ele><time>2026-03-28T09:48:09.032Z</time></trkpt><trkpt lat="45.9616007" lon="9.0821344"><ele>635.0</ele><time>2026-03-28T09:48:12.013Z</time></trkpt><trkpt lat="45.9616798" lon="9.082194"><ele>635.0</ele><time>2026-03-28T09:48:15.017Z</time></trkpt><trkpt lat="45.9616057" lon="9.0821456"><ele>635.0</ele><time>2026-03-28T09:48:58.998Z</time></trkpt><trkpt lat="45.9614983" lon="9.0821728"><ele>635.0</ele><time>2026-03-28T09:49:03.996Z</time></trkpt><trkpt lat="45.9614678" lon="9.08232"><ele>635.0</ele><time>2026-03-28T09:49:06.014Z</time></trkpt><trkpt lat="45.9614535" lon="9.0824125"><ele>634.6</ele><time>2026-03-28T09:49:07.009Z</time></trkpt><trkpt lat="45.9614448" lon="9.0825243"><ele>634.2</ele><time>2026-03-28T09:49:08.011Z</time></trkpt><trkpt lat="45.9614414" lon="9.0826436"><ele>633.8</ele><time>2026-03-28T09:49:09.035Z</time></trkpt><trkpt lat="45.9614359" lon="9.0827746"><ele>633.4</ele><time>2026-03-28T09:49:10.022Z</time></trkpt><trkpt lat="45.9614229" lon="9.0829155"><ele>633.0</ele><time>2026-03-28T09:49:11.011Z</time></trkpt><trkpt lat="45.9614052" lon="9.0830603"><ele>633.0</ele><time>2026-03-28T09:49:12.009Z</time></trkpt><trkpt lat="45.9613846" lon="9.0832098"><ele>633.0</ele><time>2026-03-28T09:49:13.007Z</time></trkpt><trkpt lat="45.9613604" lon="9.0833537"><ele>633.0</ele><time>2026-03-28T09:49:14.012Z</time></trkpt><trkpt lat="45.9613257" lon="9.0834941"><ele>633.0</ele><time>2026-03-28T09:49:15.003Z</time></trkpt><trkpt lat="45.9612874" lon="9.0836313"><ele>633.0</ele><time>2026-03-28T09:49:16.005Z</time></trkpt><trkpt lat="45.9612477" lon="9.0837631"><ele>633.6</ele><time>2026-03-28T09:49:17.005Z</time></trkpt><trkpt lat="45.9612059" lon="9.0838899"><ele>634.1999999999999</ele><time>2026-03-28T09:49:18.011Z</time></trkpt><trkpt lat="45.9611602" lon="9.0840102"><ele>634.8</ele><time>2026-03-28T09:49:19.013Z</time></trkpt><trkpt lat="45.9611056" lon="9.0841247"><ele>635.4</ele><time>2026-03-28T09:49:20.018Z</time></trkpt><trkpt lat="45.9610475" lon="9.0842377"><ele>636.0</ele><time>2026-03-28T09:49:21.012Z</time></trkpt><trkpt lat="45.9609849" lon="9.0843455"><ele>635.4</ele><time>2026-03-28T09:49:22.019Z</time></trkpt><trkpt lat="45.9609228" lon="9.0844531"><ele>634.8</ele><time>2026-03-28T09:49:23.02Z</time></trkpt><trkpt lat="45.9608644" lon="9.084567"><ele>634.1999999999999</ele><time>2026-03-28T09:49:24.019Z</time></trkpt><trkpt lat="45.9608063" lon="9.0846834"><ele>633.6</ele><time>2026-03-28T09:49:25.012Z</time></trkpt><trkpt lat="45.9607554" lon="9.084813"><ele>633.0</ele><time>2026-03-28T09:49:26.032Z</time></trkpt><trkpt lat="45.9607076" lon="9.0849436"><ele>633.0</ele><time>2026-03-28T09:49:27.02Z</time></trkpt><trkpt lat="45.960665" lon="9.0850674"><ele>633.0</ele><time>2026-03-28T09:49:28.019Z</time></trkpt><trkpt lat="45.9606229" lon="9.0851734"><ele>633.0</ele><time>2026-03-28T09:49:29.011Z</time></trkpt><trkpt lat="45.9605833" lon="9.0852589"><ele>633.0</ele><time>2026-03-28T09:49:30.002Z</time></trkpt><trkpt lat="45.9605399" lon="9.0853473"><ele>633.0</ele><time>2026-03-28T09:49:31.017Z</time></trkpt><trkpt lat="45.96049" lon="9.0854436"><ele>633.0</ele><time>2026-03-28T09:49:32.013Z</time></trkpt><trkpt lat="45.9604334" lon="9.0855371"><ele>633.0</ele><time>2026-03-28T09:49:33.006Z</time></trkpt><trkpt lat="45.9603825" lon="9.0856314"><ele>633.0</ele><time>2026-03-28T09:49:34.026Z</time></trkpt><trkpt lat="45.9603497" lon="9.0857194"><ele>633.0</ele><time>2026-03-28T09:49:35.011Z</time></trkpt><trkpt lat="45.9603197" lon="9.0858511"><ele>633.0</ele><time>2026-03-28T09:49:37.006Z</time></trkpt><trkpt lat="45.9603794" lon="9.0859084"><ele>633.0</ele><time>2026-03-28T09:49:41.007Z</time></trkpt><trkpt lat="45.960494" lon="9.0858486"><ele>633.0</ele><time>2026-03-28T09:49:43.029Z</time></trkpt><trkpt lat="45.96057" lon="9.085781"><ele>633.0</ele><time>2026-03-28T09:49:44.017Z</time></trkpt><trkpt lat="45.9606428" lon="9.0857273"><ele>633.0</ele><time>2026-03-28T09:49:45.003Z</time></trkpt><trkpt lat="45.960717" lon="9.0856812"><ele>633.0</ele><time>2026-03-28T09:49:46.009Z</time></trkpt><trkpt lat="45.9607914" lon="9.0856921"><ele>633.0</ele><time>2026-03-28T09:49:47.011Z</time></trkpt><trkpt lat="45.9608549" lon="9.0857301"><ele>633.0</ele><time>2026-03-28T09:49:48.021Z</time></trkpt><trkpt lat="45.9609065" lon="9.0858192"><ele>633.0</ele><time>2026-03-28T09:49:50.012Z</time></trkpt><trkpt lat="45.9608922" lon="9.0859342"><ele>635.0</ele><time>2026-03-28T09:49:51.021Z</time></trkpt><trkpt lat="45.9608325" lon="9.0860788"><ele>637.0</ele><time>2026-03-28T09:49:52.007Z</time></trkpt><trkpt lat="45.9607817" lon="9.0862552"><ele>639.0</ele><time>2026-03-28T09:49:53.026Z</time></trkpt><trkpt lat="45.9607349" lon="9.0864126"><ele>641.0</ele><time>2026-03-28T09:49:54.031Z</time></trkpt><trkpt lat="45.9606825" lon="9.0865842"><ele>642.5</ele><time>2026-03-28T09:49:55.02Z</time></trkpt><trkpt lat="45.960628" lon="9.0867674"><ele>644.0</ele><time>2026-03-28T09:49:56.01Z</time></trkpt><trkpt lat="45.9605973" lon="9.0869311"><ele>645.5</ele><time>2026-03-28T09:49:57.011Z</time></trkpt><trkpt lat="45.9605609" lon="9.0870984"><ele>647.0</ele><time>2026-03-28T09:49:58.013Z</time></trkpt><trkpt lat="45.9605353" lon="9.0872428"><ele>647.0</ele><time>2026-03-28T09:49:59.025Z</time></trkpt><trkpt lat="45.9605134" lon="9.0873671"><ele>647.0</ele><time>2026-03-28T09:50:00.018Z</time></trkpt><trkpt lat="45.9605168" lon="9.0874697"><ele>647.0</ele><time>2026-03-28T09:50:01.015Z</time></trkpt><trkpt lat="45.9605418" lon="9.0875529"><ele>647.0</ele><time>2026-03-28T09:50:01.995Z</time></trkpt><trkpt lat="45.9605693" lon="9.0877029"><ele>647.0</ele><time>2026-03-28T09:50:04.017Z</time></trkpt><trkpt lat="45.9605054" lon="9.0878194"><ele>647.0</ele><time>2026-03-28T09:50:06.011Z</time></trkpt><trkpt lat="45.9604293" lon="9.0879046"><ele>648.0</ele><time>2026-03-28T09:50:08.018Z</time></trkpt><trkpt lat="45.9603219" lon="9.0879814"><ele>649.0</ele><time>2026-03-28T09:50:09.994Z</time></trkpt><trkpt lat="45.9602636" lon="9.0880253"><ele>650.0</ele><time>2026-03-28T09:50:10.995Z</time></trkpt><trkpt lat="45.9601618" lon="9.0880977"><ele>651.0</ele><time>2026-03-28T09:50:12.996Z</time></trkpt><trkpt lat="45.9600878" lon="9.0881848"><ele>652.0</ele><time>2026-03-28T09:50:14.999Z</time></trkpt><trkpt lat="45.9600407" lon="9.0882698"><ele>651.6666666666667</ele><time>2026-03-28T09:50:18.009Z</time></trkpt><trkpt lat="45.9600129" lon="9.0883645"><ele>651.3333333333334</ele><time>2026-03-28T09:50:21.038Z</time></trkpt><trkpt lat="45.9599443" lon="9.0884801"><ele>651.0</ele><time>2026-03-28T09:50:24.01Z</time></trkpt><trkpt lat="45.9598651" lon="9.0886182"><ele>650.6666666666666</ele><time>2026-03-28T09:50:25.993Z</time></trkpt><trkpt lat="45.9598157" lon="9.0887044"><ele>650.3333333333333</ele><time>2026-03-28T09:50:27.013Z</time></trkpt><trkpt lat="45.9597752" lon="9.0887829"><ele>650.0</ele><time>2026-03-28T09:50:28.01Z</time></trkpt><trkpt lat="45.9597352" lon="9.0888575"><ele>650.0</ele><time>2026-03-28T09:50:29.013Z</time></trkpt><trkpt lat="45.9596628" lon="9.0889941"><ele>650.0</ele><time>2026-03-28T09:50:31.019Z</time></trkpt><trkpt lat="45.9595713" lon="9.0890878"><ele>650.0</ele><time>2026-03-28T09:50:33.009Z</time></trkpt><trkpt lat="45.959495" lon="9.0891888"><ele>650.0</ele><time>2026-03-28T09:50:35.019Z</time></trkpt><trkpt lat="45.959441" lon="9.0892391"><ele>650.0</ele><time>2026-03-28T09:50:36.011Z</time></trkpt><trkpt lat="45.9593471" lon="9.089343"><ele>650.0</ele><time>2026-03-28T09:50:38.017Z</time></trkpt><trkpt lat="45.959296" lon="9.0894013"><ele>650.0</ele><time>2026-03-28T09:50:39.023Z</time></trkpt><trkpt lat="45.9592235" lon="9.0895415"><ele>650.0</ele><time>2026-03-28T09:50:41.009Z</time></trkpt><trkpt lat="45.9591925" lon="9.0897134"><ele>650.0</ele><time>2026-03-28T09:50:43.005Z</time></trkpt><trkpt lat="45.9591965" lon="9.0898935"><ele>650.0</ele><time>2026-03-28T09:50:45.01Z</time></trkpt><trkpt lat="45.9592004" lon="9.089988"><ele>652.1428571428571</ele><time>2026-03-28T09:50:46.007Z</time></trkpt><trkpt lat="45.9592055" lon="9.0900875"><ele>654.2857142857143</ele><time>2026-03-28T09:50:47.01Z</time></trkpt><trkpt lat="45.9592094" lon="9.0901869"><ele>656.4285714285714</ele><time>2026-03-28T09:50:48.012Z</time></trkpt><trkpt lat="45.9592129" lon="9.0902823"><ele>658.5714285714286</ele><time>2026-03-28T09:50:49.009Z</time></trkpt><trkpt lat="45.9592198" lon="9.0903755"><ele>660.7142857142858</ele><time>2026-03-28T09:50:50.012Z</time></trkpt><trkpt lat="45.9592416" lon="9.0904686"><ele>662.8571428571429</ele><time>2026-03-28T09:50:51.019Z</time></trkpt><trkpt lat="45.9592754" lon="9.0905568"><ele>665.0</ele><time>2026-03-28T09:50:52.023Z</time></trkpt><trkpt lat="45.9593237" lon="9.0906414"><ele>665.0</ele><time>2026-03-28T09:50:53.011Z</time></trkpt><trkpt lat="45.9593736" lon="9.0907251"><ele>665.0</ele><time>2026-03-28T09:50:54.005Z</time></trkpt><trkpt lat="45.9594303" lon="9.0908083"><ele>665.0</ele><time>2026-03-28T09:50:55.018Z</time></trkpt><trkpt lat="45.959492" lon="9.0908865"><ele>665.0</ele><time>2026-03-28T09:50:56.013Z</time></trkpt><trkpt lat="45.9595647" lon="9.0909607"><ele>665.0</ele><time>2026-03-28T09:50:57.008Z</time></trkpt><trkpt lat="45.9596376" lon="9.0910317"><ele>665.0</ele><time>2026-03-28T09:50:58.009Z</time></trkpt><trkpt lat="45.9597126" lon="9.0910901"><ele>665.0</ele><time>2026-03-28T09:50:58.989Z</time></trkpt><trkpt lat="45.9597885" lon="9.0911363"><ele>665.0</ele><time>2026-03-28T09:51:00.023Z</time></trkpt><trkpt lat="45.9598607" lon="9.0911795"><ele>665.0</ele><time>2026-03-28T09:51:01.004Z</time></trkpt><trkpt lat="45.9599231" lon="9.0912116"><ele>665.0</ele><time>2026-03-28T09:51:02.018Z</time></trkpt><trkpt lat="45.9599959" lon="9.0912792"><ele>665.0</ele><time>2026-03-28T09:51:04.021Z</time></trkpt><trkpt lat="45.9600618" lon="9.0913918"><ele>665.0</ele><time>2026-03-28T09:51:06.016Z</time></trkpt><trkpt lat="45.9601492" lon="9.0914465"><ele>669.0</ele><time>2026-03-28T09:51:08.005Z</time></trkpt><trkpt lat="45.9602098" lon="9.0913972"><ele>673.0</ele><time>2026-03-28T09:51:10.009Z</time></trkpt><trkpt lat="45.9602607" lon="9.0912962"><ele>677.0</ele><time>2026-03-28T09:51:39.026Z</time></trkpt><trkpt lat="45.9603067" lon="9.091175"><ele>681.0</ele><time>2026-03-28T09:51:41.006Z</time></trkpt><trkpt lat="45.960369" lon="9.0911015"><ele>685.0</ele><time>2026-03-28T09:51:43.009Z</time></trkpt><trkpt lat="45.96045" lon="9.0911324"><ele>689.0</ele><time>2026-03-28T09:51:45.008Z</time></trkpt><trkpt lat="45.9604984" lon="9.0911929"><ele>689.0</ele><time>2026-03-28T09:51:46.009Z</time></trkpt><trkpt lat="45.9605576" lon="9.0912859"><ele>689.0</ele><time>2026-03-28T09:51:47.012Z</time></trkpt><trkpt lat="45.9606217" lon="9.0913826"><ele>689.0</ele><time>2026-03-28T09:51:48.009Z</time></trkpt><trkpt lat="45.9606843" lon="9.0914859"><ele>689.0</ele><time>2026-03-28T09:51:48.994Z</time></trkpt><trkpt lat="45.9607488" lon="9.091582"><ele>689.0</ele><time>2026-03-28T09:51:50.01Z</time></trkpt><trkpt lat="45.960804" lon="9.0916708"><ele>689.3333333333333</ele><time>2026-03-28T09:51:50.991Z</time></trkpt><trkpt lat="45.9608569" lon="9.0917399"><ele>689.6666666666666</ele><time>2026-03-28T09:51:52.014Z</time></trkpt><trkpt lat="45.9609122" lon="9.0917989"><ele>690.0</ele><time>2026-03-28T09:51:53.016Z</time></trkpt><trkpt lat="45.960994" lon="9.0917288"><ele>690.3333333333334</ele><time>2026-03-28T09:51:55.005Z</time></trkpt><trkpt lat="45.9609873" lon="9.0915551"><ele>690.6666666666667</ele><time>2026-03-28T09:51:57.009Z</time></trkpt><trkpt lat="45.9609701" lon="9.0914575"><ele>691.0</ele><time>2026-03-28T09:51:58.008Z</time></trkpt><trkpt lat="45.9609413" lon="9.0913609"><ele>690.5999999999999</ele><time>2026-03-28T09:51:59.009Z</time></trkpt><trkpt lat="45.9608971" lon="9.09121"><ele>690.2</ele><time>2026-03-28T09:52:01.009Z</time></trkpt><trkpt lat="45.9609024" lon="9.0911156"><ele>689.8</ele><time>2026-03-28T09:52:03.011Z</time></trkpt><trkpt lat="45.9608866" lon="9.09123"><ele>689.4000000000001</ele><time>2026-03-28T09:52:09.002Z</time></trkpt><trkpt lat="45.9608633" lon="9.0913507"><ele>689.0</ele><time>2026-03-28T09:52:11.012Z</time></trkpt><trkpt lat="45.9608858" lon="9.0915478"><ele>698.0</ele><time>2026-03-28T09:52:13.01Z</time></trkpt><trkpt lat="45.9609353" lon="9.0916816"><ele>707.0</ele><time>2026-03-28T09:52:14.009Z</time></trkpt><trkpt lat="45.9610151" lon="9.0918445"><ele>716.0</ele><time>2026-03-28T09:52:15Z</time></trkpt><trkpt lat="45.9610504" lon="9.0919572"><ele>725.0</ele><time>2026-03-28T09:52:16.013Z</time></trkpt><trkpt lat="45.9611243" lon="9.0921381"><ele>725.0</ele><time>2026-03-28T09:52:17.008Z</time></trkpt><trkpt lat="45.9611465" lon="9.0922238"><ele>725.0</ele><time>2026-03-28T09:52:18.014Z</time></trkpt><trkpt lat="45.9611615" lon="9.0923145"><ele>725.0</ele><time>2026-03-28T09:52:19.013Z</time></trkpt><trkpt lat="45.9611649" lon="9.0924218"><ele>725.0</ele><time>2026-03-28T09:52:20.013Z</time></trkpt><trkpt lat="45.9611468" lon="9.0925255"><ele>725.0</ele><time>2026-03-28T09:52:21.009Z</time></trkpt><trkpt lat="45.961083" lon="9.0925804"><ele>725.0</ele><time>2026-03-28T09:52:22.003Z</time></trkpt><trkpt lat="45.9609696" lon="9.0925897"><ele>724.4</ele><time>2026-03-28T09:52:24.015Z</time></trkpt><trkpt lat="45.9608717" lon="9.0925385"><ele>723.8</ele><time>2026-03-28T09:52:25.997Z</time></trkpt><trkpt lat="45.9607556" lon="9.0925122"><ele>723.2</ele><time>2026-03-28T09:52:27.998Z</time></trkpt><trkpt lat="45.9606838" lon="9.0925666"><ele>722.6</ele><time>2026-03-28T09:52:29.002Z</time></trkpt><trkpt lat="45.9606096" lon="9.0926224"><ele>722.0</ele><time>2026-03-28T09:52:30.005Z</time></trkpt><trkpt lat="45.9605301" lon="9.0927159"><ele>717.6</ele><time>2026-03-28T09:52:30.992Z</time></trkpt><trkpt lat="45.9604476" lon="9.0927787"><ele>713.2</ele><time>2026-03-28T09:52:32.004Z</time></trkpt><trkpt lat="45.9603667" lon="9.0928436"><ele>708.8</ele><time>2026-03-28T09:52:33.014Z</time></trkpt><trkpt lat="45.9602892" lon="9.0928932"><ele>704.4</ele><time>2026-03-28T09:52:34.012Z</time></trkpt><trkpt lat="45.9602057" lon="9.092933"><ele>700.0</ele><time>2026-03-28T09:52:35.018Z</time></trkpt><trkpt lat="45.9601202" lon="9.0929861"><ele>700.0</ele><time>2026-03-28T09:52:36.009Z</time></trkpt><trkpt lat="45.9600381" lon="9.0930636"><ele>700.0</ele><time>2026-03-28T09:52:37.014Z</time></trkpt><trkpt lat="45.9599568" lon="9.093142"><ele>700.0</ele><time>2026-03-28T09:52:38.022Z</time></trkpt><trkpt lat="45.9598792" lon="9.0932526"><ele>700.0</ele><time>2026-03-28T09:52:39.015Z</time></trkpt><trkpt lat="45.9598068" lon="9.0933622"><ele>700.0</ele><time>2026-03-28T09:52:40.033Z</time></trkpt><trkpt lat="45.959735" lon="9.0934696"><ele>703.2</ele><time>2026-03-28T09:52:41.014Z</time></trkpt><trkpt lat="45.959662" lon="9.0935739"><ele>706.4</ele><time>2026-03-28T09:52:42.012Z</time></trkpt><trkpt lat="45.9595903" lon="9.093672"><ele>709.5999999999999</ele><time>2026-03-28T09:52:43.004Z</time></trkpt><trkpt lat="45.9595246" lon="9.0937585"><ele>712.8</ele><time>2026-03-28T09:52:44Z</time></trkpt><trkpt lat="45.9594656" lon="9.0938354"><ele>716.0</ele><time>2026-03-28T09:52:45.002Z</time></trkpt><trkpt lat="45.9593995" lon="9.0939434"><ele>716.0</ele><time>2026-03-28T09:52:47.006Z</time></trkpt><trkpt lat="45.9595108" lon="9.0939862"><ele>716.0</ele><time>2026-03-28T09:52:51.042Z</time></trkpt><trkpt lat="45.9596334" lon="9.0939346"><ele>716.0</ele><time>2026-03-28T09:52:52.026Z</time></trkpt><trkpt lat="45.9597678" lon="9.0938895"><ele>716.0</ele><time>2026-03-28T09:52:53.009Z</time></trkpt><trkpt lat="45.9599108" lon="9.0938343"><ele>717.75</ele><time>2026-03-28T09:52:54.008Z</time></trkpt><trkpt lat="45.9600576" lon="9.0937751"><ele>719.5</ele><time>2026-03-28T09:52:55.015Z</time></trkpt><trkpt lat="45.9601904" lon="9.093734"><ele>721.25</ele><time>2026-03-28T09:52:56.028Z</time></trkpt><trkpt lat="45.9603014" lon="9.0937069"><ele>723.0</ele><time>2026-03-28T09:52:57.011Z</time></trkpt><trkpt lat="45.9604015" lon="9.0936911"><ele>723.0</ele><time>2026-03-28T09:52:58.02Z</time></trkpt><trkpt lat="45.9604986" lon="9.0936772"><ele>723.0</ele><time>2026-03-28T09:52:59.013Z</time></trkpt><trkpt lat="45.9605941" lon="9.0936542"><ele>723.0</ele><time>2026-03-28T09:53:00.003Z</time></trkpt><trkpt lat="45.9606674" lon="9.0936632"><ele>723.0</ele><time>2026-03-28T09:53:01.004Z</time></trkpt><trkpt lat="45.9607224" lon="9.0937145"><ele>723.0</ele><time>2026-03-28T09:53:02.018Z</time></trkpt><trkpt lat="45.960771" lon="9.0938187"><ele>723.0</ele><time>2026-03-28T09:53:04.006Z</time></trkpt><trkpt lat="45.9607303" lon="9.0940221"><ele>727.25</ele><time>2026-03-28T09:53:06.008Z</time></trkpt><trkpt lat="45.9606302" lon="9.0941478"><ele>731.5</ele><time>2026-03-28T09:53:07.012Z</time></trkpt><trkpt lat="45.9604816" lon="9.0942082"><ele>735.75</ele><time>2026-03-28T09:53:08.013Z</time></trkpt><trkpt lat="45.9603338" lon="9.0942553"><ele>740.0</ele><time>2026-03-28T09:53:09.016Z</time></trkpt><trkpt lat="45.9601804" lon="9.0942996"><ele>740.0</ele><time>2026-03-28T09:53:10.02Z</time></trkpt><trkpt lat="45.9600369" lon="9.0943604"><ele>740.0</ele><time>2026-03-28T09:53:11.027Z</time></trkpt><trkpt lat="45.9599079" lon="9.0944252"><ele>740.0</ele><time>2026-03-28T09:53:12.023Z</time></trkpt><trkpt lat="45.9598006" lon="9.094478"><ele>740.0</ele><time>2026-03-28T09:53:13.021Z</time></trkpt><trkpt lat="45.9596989" lon="9.0945317"><ele>739.6</ele><time>2026-03-28T09:53:14.025Z</time></trkpt><trkpt lat="45.9596048" lon="9.0946025"><ele>739.2</ele><time>2026-03-28T09:53:15.018Z</time></trkpt><trkpt lat="45.959514" lon="9.0946829"><ele>738.8</ele><time>2026-03-28T09:53:16.01Z</time></trkpt><trkpt lat="45.9594316" lon="9.0947833"><ele>738.4</ele><time>2026-03-28T09:53:17.013Z</time></trkpt><trkpt lat="45.9593441" lon="9.0948918"><ele>738.0</ele><time>2026-03-28T09:53:18.025Z</time></trkpt><trkpt lat="45.9592646" lon="9.0950129"><ele>739.2</ele><time>2026-03-28T09:53:19.014Z</time></trkpt><trkpt lat="45.9591916" lon="9.0951392"><ele>740.4</ele><time>2026-03-28T09:53:20.042Z</time></trkpt><trkpt lat="45.9591236" lon="9.0952622"><ele>741.6</ele><time>2026-03-28T09:53:21.024Z</time></trkpt><trkpt lat="45.95906" lon="9.0953878"><ele>742.8000000000001</ele><time>2026-03-28T09:53:22.017Z</time></trkpt><trkpt lat="45.9589952" lon="9.0955096"><ele>744.0</ele><time>2026-03-28T09:53:23.042Z</time></trkpt><trkpt lat="45.9589326" lon="9.0956312"><ele>744.0</ele><time>2026-03-28T09:53:24.014Z</time></trkpt><trkpt lat="45.9588752" lon="9.0957416"><ele>744.0</ele><time>2026-03-28T09:53:25.014Z</time></trkpt><trkpt lat="45.9588559" lon="9.0958423"><ele>744.0</ele><time>2026-03-28T09:53:26.017Z</time></trkpt><trkpt lat="45.9588372" lon="9.0959374"><ele>744.0</ele><time>2026-03-28T09:53:27.008Z</time></trkpt><trkpt lat="45.9588686" lon="9.0960368"><ele>744.0</ele><time>2026-03-28T09:53:29.009Z</time></trkpt><trkpt lat="45.958971" lon="9.0960084"><ele>744.0</ele><time>2026-03-28T09:53:31.012Z</time></trkpt><trkpt lat="45.9590527" lon="9.0958848"><ele>744.0</ele><time>2026-03-28T09:53:32.028Z</time></trkpt><trkpt lat="45.9591406" lon="9.0957534"><ele>744.0</ele><time>2026-03-28T09:53:33.009Z</time></trkpt><trkpt lat="45.9592185" lon="9.0956306"><ele>744.0</ele><time>2026-03-28T09:53:34.014Z</time></trkpt><trkpt lat="45.9592958" lon="9.0955344"><ele>744.0</ele><time>2026-03-28T09:53:35.013Z</time></trkpt><trkpt lat="45.9593794" lon="9.0954676"><ele>744.0</ele><time>2026-03-28T09:53:36Z</time></trkpt><trkpt lat="45.959466" lon="9.0953995"><ele>746.8000000000001</ele><time>2026-03-28T09:53:37.006Z</time></trkpt><trkpt lat="45.9595412" lon="9.0953674"><ele>749.6</ele><time>2026-03-28T09:53:38.023Z</time></trkpt><trkpt lat="45.9596464" lon="9.0953917"><ele>752.4</ele><time>2026-03-28T09:53:40.01Z</time></trkpt><trkpt lat="45.9596541" lon="9.0955561"><ele>755.2</ele><time>2026-03-28T09:53:42.008Z</time></trkpt><trkpt lat="45.9596306" lon="9.095661"><ele>758.0</ele><time>2026-03-28T09:53:43Z</time></trkpt><trkpt lat="45.9596008" lon="9.0957778"><ele>759.6666666666666</ele><time>2026-03-28T09:53:44.007Z</time></trkpt><trkpt lat="45.959573" lon="9.0958955"><ele>761.3333333333333</ele><time>2026-03-28T09:53:45.001Z</time></trkpt><trkpt lat="45.9595518" lon="9.0960185"><ele>763.0</ele><time>2026-03-28T09:53:46.016Z</time></trkpt><trkpt lat="45.9595343" lon="9.0961388"><ele>764.6666666666666</ele><time>2026-03-28T09:53:47.015Z</time></trkpt><trkpt lat="45.9595168" lon="9.0962551"><ele>766.3333333333334</ele><time>2026-03-28T09:53:48.006Z</time></trkpt><trkpt lat="45.9594975" lon="9.0963781"><ele>768.0</ele><time>2026-03-28T09:53:48.996Z</time></trkpt><trkpt lat="45.9594804" lon="9.0964991"><ele>769.1666666666666</ele><time>2026-03-28T09:53:50.016Z</time></trkpt><trkpt lat="45.9594644" lon="9.0966023"><ele>770.3333333333333</ele><time>2026-03-28T09:53:51.01Z</time></trkpt><trkpt lat="45.9594426" lon="9.0967646"><ele>771.5</ele><time>2026-03-28T09:53:52.993Z</time></trkpt><trkpt lat="45.9595368" lon="9.0968049"><ele>772.6666666666666</ele><time>2026-03-28T09:53:56.03Z</time></trkpt><trkpt lat="45.9596088" lon="9.0968402"><ele>773.8333333333333</ele><time>2026-03-28T09:53:59.012Z</time></trkpt><trkpt lat="45.9596416" lon="9.0969554"><ele>775.0</ele><time>2026-03-28T09:54:01.004Z</time></trkpt><trkpt lat="45.9596826" lon="9.0971119"><ele>775.0</ele><time>2026-03-28T09:54:03.026Z</time></trkpt><trkpt lat="45.9597178" lon="9.0972399"><ele>775.0</ele><time>2026-03-28T09:54:05.023Z</time></trkpt><trkpt lat="45.9597784" lon="9.0973424"><ele>775.0</ele><time>2026-03-28T09:54:06.993Z</time></trkpt><trkpt lat="45.9598493" lon="9.0974456"><ele>775.0</ele><time>2026-03-28T09:54:09.022Z</time></trkpt><trkpt lat="45.9599139" lon="9.0975731"><ele>775.0</ele><time>2026-03-28T09:54:11.015Z</time></trkpt><trkpt lat="45.9600089" lon="9.0976183"><ele>777.1666666666666</ele><time>2026-03-28T09:54:22.006Z</time></trkpt><trkpt lat="45.960079" lon="9.097592"><ele>779.3333333333333</ele><time>2026-03-28T09:54:24.012Z</time></trkpt><trkpt lat="45.9601489" lon="9.0976236"><ele>781.5</ele><time>2026-03-28T09:54:27.028Z</time></trkpt><trkpt lat="45.9600705" lon="9.0977404"><ele>783.6666666666667</ele><time>2026-03-28T09:54:32.008Z</time></trkpt><trkpt lat="45.9600082" lon="9.0978107"><ele>785.8333333333334</ele><time>2026-03-28T09:54:33.006Z</time></trkpt><trkpt lat="45.959961" lon="9.0979508"><ele>788.0</ele><time>2026-03-28T09:54:35.008Z</time></trkpt><trkpt lat="45.9599564" lon="9.0980604"><ele>788.0000000000001</ele><time>2026-03-28T09:54:36.999Z</time></trkpt><trkpt lat="45.9599275" lon="9.0981437"><ele>788.0</ele><time>2026-03-28T09:54:46.001Z</time></trkpt><trkpt lat="45.9598568" lon="9.0980586"><ele>788.0</ele><time>2026-03-28T09:55:51.009Z</time></trkpt><trkpt lat="45.9598675" lon="9.0979435"><ele>788.0</ele><time>2026-03-28T09:55:56.01Z</time></trkpt><trkpt lat="45.9598983" lon="9.0978588"><ele>788.0000000000001</ele><time>2026-03-28T09:55:58.016Z</time></trkpt><trkpt lat="45.9599807" lon="9.0977795"><ele>788.0</ele><time>2026-03-28T09:56:00.014Z</time></trkpt><trkpt lat="45.9600642" lon="9.0977047"><ele>794.0</ele><time>2026-03-28T09:56:02.007Z</time></trkpt><trkpt lat="45.9601157" lon="9.0976463"><ele>794.0</ele><time>2026-03-28T09:56:04.02Z</time></trkpt></trkseg></trk></gpx>